<?xml version="1.0" encoding="UTF-8" standalone="no" ?>
<gpx xmlns="http://www.topografix.com/GPX/1/1" xmlns:xsi="http://www.w3.org/2001/XMLSchema-instance" xsi:schemaLocation="http://www.topografix.com/GPX/1/1 http://www.topografix.com/GPX/1/1/gpx.xsd" version="1.1" creator="VisuGPX - https://www.visugpx.com">
  <metadata>
    <name>Raquettes dans le Pilat le 2 décembre 2010</name>
    <desc><![CDATA[Raquettes dans le Pilat le 2 décembre 2010]]></desc>
  </metadata>
  <trk>
    <name><![CDATA[Raquettes dans le Pilat le 2 décembre 2010_1]]></name>
    <trkseg>
      <trkpt lat="45.36861" lon="4.52896">
        <ele>1206</ele>
        <time>2010-12-02T12:40:42Z</time>
      </trkpt>
      <trkpt lat="45.36865" lon="4.52908">
        <ele>1206</ele>
        <time>2010-12-02T12:40:57Z</time>
      </trkpt>
      <trkpt lat="45.36866" lon="4.52922">
        <ele>1210</ele>
        <time>2010-12-02T12:41:13Z</time>
      </trkpt>
      <trkpt lat="45.36864" lon="4.52936">
        <ele>1211</ele>
        <time>2010-12-02T12:41:30Z</time>
      </trkpt>
      <trkpt lat="45.36863" lon="4.52949">
        <ele>1211</ele>
        <time>2010-12-02T12:41:42Z</time>
      </trkpt>
      <trkpt lat="45.36866" lon="4.52962">
        <ele>1212</ele>
        <time>2010-12-02T12:41:56Z</time>
      </trkpt>
      <trkpt lat="45.36868" lon="4.52975">
        <ele>1213</ele>
        <time>2010-12-02T12:42:12Z</time>
      </trkpt>
      <trkpt lat="45.36872" lon="4.52987">
        <ele>1213</ele>
        <time>2010-12-02T12:42:26Z</time>
      </trkpt>
      <trkpt lat="45.36878" lon="4.52998">
        <ele>1214</ele>
        <time>2010-12-02T12:42:49Z</time>
      </trkpt>
      <trkpt lat="45.36886" lon="4.53006">
        <ele>1219</ele>
        <time>2010-12-02T12:43:06Z</time>
      </trkpt>
      <trkpt lat="45.36893" lon="4.53016">
        <ele>1220</ele>
        <time>2010-12-02T12:43:21Z</time>
      </trkpt>
      <trkpt lat="45.36899" lon="4.53026">
        <ele>1220</ele>
        <time>2010-12-02T12:43:34Z</time>
      </trkpt>
      <trkpt lat="45.36903" lon="4.53038">
        <ele>1221</ele>
        <time>2010-12-02T12:43:58Z</time>
      </trkpt>
      <trkpt lat="45.36905" lon="4.53053">
        <ele>1222</ele>
        <time>2010-12-02T12:44:11Z</time>
      </trkpt>
      <trkpt lat="45.36906" lon="4.53066">
        <ele>1224</ele>
        <time>2010-12-02T12:44:22Z</time>
      </trkpt>
      <trkpt lat="45.36906" lon="4.5308">
        <ele>1225</ele>
        <time>2010-12-02T12:44:33Z</time>
      </trkpt>
      <trkpt lat="45.36906" lon="4.53093">
        <ele>1228</ele>
        <time>2010-12-02T12:44:43Z</time>
      </trkpt>
      <trkpt lat="45.36908" lon="4.53107">
        <ele>1228</ele>
        <time>2010-12-02T12:44:56Z</time>
      </trkpt>
      <trkpt lat="45.36911" lon="4.53119">
        <ele>1229</ele>
        <time>2010-12-02T12:45:08Z</time>
      </trkpt>
      <trkpt lat="45.36912" lon="4.53134">
        <ele>1230</ele>
        <time>2010-12-02T12:45:22Z</time>
      </trkpt>
      <trkpt lat="45.36915" lon="4.53146">
        <ele>1231</ele>
        <time>2010-12-02T12:45:34Z</time>
      </trkpt>
      <trkpt lat="45.36919" lon="4.53159">
        <ele>1235</ele>
        <time>2010-12-02T12:45:45Z</time>
      </trkpt>
      <trkpt lat="45.36916" lon="4.53172">
        <ele>1234</ele>
        <time>2010-12-02T12:46:01Z</time>
      </trkpt>
      <trkpt lat="45.36919" lon="4.53185">
        <ele>1238</ele>
        <time>2010-12-02T12:46:11Z</time>
      </trkpt>
      <trkpt lat="45.3692" lon="4.53198">
        <ele>1239</ele>
        <time>2010-12-02T12:46:24Z</time>
      </trkpt>
      <trkpt lat="45.36921" lon="4.53212">
        <ele>1239</ele>
        <time>2010-12-02T12:46:42Z</time>
      </trkpt>
      <trkpt lat="45.36922" lon="4.53226">
        <ele>1239</ele>
        <time>2010-12-02T12:46:54Z</time>
      </trkpt>
      <trkpt lat="45.36924" lon="4.5324">
        <ele>1238</ele>
        <time>2010-12-02T12:47:06Z</time>
      </trkpt>
      <trkpt lat="45.36928" lon="4.53252">
        <ele>1239</ele>
        <time>2010-12-02T12:47:16Z</time>
      </trkpt>
      <trkpt lat="45.36931" lon="4.53265">
        <ele>1241</ele>
        <time>2010-12-02T12:47:26Z</time>
      </trkpt>
      <trkpt lat="45.36933" lon="4.53277">
        <ele>1242</ele>
        <time>2010-12-02T12:47:37Z</time>
      </trkpt>
      <trkpt lat="45.3694" lon="4.53288">
        <ele>1243</ele>
        <time>2010-12-02T12:47:49Z</time>
      </trkpt>
      <trkpt lat="45.36944" lon="4.533">
        <ele>1244</ele>
        <time>2010-12-02T12:48:01Z</time>
      </trkpt>
      <trkpt lat="45.36949" lon="4.53312">
        <ele>1245</ele>
        <time>2010-12-02T12:48:12Z</time>
      </trkpt>
      <trkpt lat="45.36954" lon="4.53323">
        <ele>1245</ele>
        <time>2010-12-02T12:48:24Z</time>
      </trkpt>
      <trkpt lat="45.3696" lon="4.53335">
        <ele>1247</ele>
        <time>2010-12-02T12:48:35Z</time>
      </trkpt>
      <trkpt lat="45.36963" lon="4.53348">
        <ele>1248</ele>
        <time>2010-12-02T12:48:44Z</time>
      </trkpt>
      <trkpt lat="45.36967" lon="4.5336">
        <ele>1248</ele>
        <time>2010-12-02T12:48:55Z</time>
      </trkpt>
      <trkpt lat="45.36973" lon="4.53371">
        <ele>1248</ele>
        <time>2010-12-02T12:49:09Z</time>
      </trkpt>
      <trkpt lat="45.36977" lon="4.53383">
        <ele>1248</ele>
        <time>2010-12-02T12:49:21Z</time>
      </trkpt>
      <trkpt lat="45.36982" lon="4.53395">
        <ele>1249</ele>
        <time>2010-12-02T12:49:34Z</time>
      </trkpt>
      <trkpt lat="45.36986" lon="4.53409">
        <ele>1249</ele>
        <time>2010-12-02T12:49:45Z</time>
      </trkpt>
      <trkpt lat="45.3699" lon="4.53421">
        <ele>1250</ele>
        <time>2010-12-02T12:49:53Z</time>
      </trkpt>
      <trkpt lat="45.36992" lon="4.53434">
        <ele>1250</ele>
        <time>2010-12-02T12:50:05Z</time>
      </trkpt>
      <trkpt lat="45.36997" lon="4.53445">
        <ele>1251</ele>
        <time>2010-12-02T12:50:16Z</time>
      </trkpt>
      <trkpt lat="45.37002" lon="4.5346">
        <ele>1248</ele>
        <time>2010-12-02T12:50:28Z</time>
      </trkpt>
      <trkpt lat="45.37009" lon="4.5347">
        <ele>1248</ele>
        <time>2010-12-02T12:50:38Z</time>
      </trkpt>
      <trkpt lat="45.37012" lon="4.53482">
        <ele>1248</ele>
        <time>2010-12-02T12:50:56Z</time>
      </trkpt>
      <trkpt lat="45.37015" lon="4.53497">
        <ele>1249</ele>
        <time>2010-12-02T12:51:11Z</time>
      </trkpt>
      <trkpt lat="45.37021" lon="4.53509">
        <ele>1247</ele>
        <time>2010-12-02T12:51:23Z</time>
      </trkpt>
      <trkpt lat="45.37023" lon="4.53524">
        <ele>1246</ele>
        <time>2010-12-02T12:51:35Z</time>
      </trkpt>
      <trkpt lat="45.3702" lon="4.53536">
        <ele>1246</ele>
        <time>2010-12-02T12:51:47Z</time>
      </trkpt>
      <trkpt lat="45.37019" lon="4.5355">
        <ele>1246</ele>
        <time>2010-12-02T12:51:56Z</time>
      </trkpt>
      <trkpt lat="45.37022" lon="4.53562">
        <ele>1246</ele>
        <time>2010-12-02T12:52:05Z</time>
      </trkpt>
      <trkpt lat="45.37019" lon="4.53576">
        <ele>1247</ele>
        <time>2010-12-02T12:52:13Z</time>
      </trkpt>
      <trkpt lat="45.37016" lon="4.53588">
        <ele>1246</ele>
        <time>2010-12-02T12:52:24Z</time>
      </trkpt>
      <trkpt lat="45.37011" lon="4.53602">
        <ele>1246</ele>
        <time>2010-12-02T12:52:35Z</time>
      </trkpt>
      <trkpt lat="45.37015" lon="4.53614">
        <ele>1244</ele>
        <time>2010-12-02T12:52:43Z</time>
      </trkpt>
      <trkpt lat="45.3701" lon="4.53627">
        <ele>1244</ele>
        <time>2010-12-02T12:52:55Z</time>
      </trkpt>
      <trkpt lat="45.37006" lon="4.53639">
        <ele>1244</ele>
        <time>2010-12-02T12:53:05Z</time>
      </trkpt>
      <trkpt lat="45.37004" lon="4.53652">
        <ele>1244</ele>
        <time>2010-12-02T12:53:16Z</time>
      </trkpt>
      <trkpt lat="45.37005" lon="4.53665">
        <ele>1245</ele>
        <time>2010-12-02T12:53:27Z</time>
      </trkpt>
      <trkpt lat="45.36999" lon="4.53676">
        <ele>1247</ele>
        <time>2010-12-02T12:53:38Z</time>
      </trkpt>
      <trkpt lat="45.36994" lon="4.53689">
        <ele>1247</ele>
        <time>2010-12-02T12:53:44Z</time>
      </trkpt>
      <trkpt lat="45.36995" lon="4.53702">
        <ele>1248</ele>
        <time>2010-12-02T12:53:50Z</time>
      </trkpt>
      <trkpt lat="45.36996" lon="4.53716">
        <ele>1247</ele>
        <time>2010-12-02T12:53:58Z</time>
      </trkpt>
      <trkpt lat="45.36993" lon="4.53728">
        <ele>1247</ele>
        <time>2010-12-02T12:54:06Z</time>
      </trkpt>
      <trkpt lat="45.36989" lon="4.5374">
        <ele>1246</ele>
        <time>2010-12-02T12:54:13Z</time>
      </trkpt>
      <trkpt lat="45.36989" lon="4.53754">
        <ele>1244</ele>
        <time>2010-12-02T12:54:23Z</time>
      </trkpt>
      <trkpt lat="45.36985" lon="4.53769">
        <ele>1244</ele>
        <time>2010-12-02T12:54:33Z</time>
      </trkpt>
      <trkpt lat="45.36987" lon="4.53783">
        <ele>1244</ele>
        <time>2010-12-02T12:54:42Z</time>
      </trkpt>
      <trkpt lat="45.36987" lon="4.53797">
        <ele>1244</ele>
        <time>2010-12-02T12:54:51Z</time>
      </trkpt>
      <trkpt lat="45.36989" lon="4.5381">
        <ele>1244</ele>
        <time>2010-12-02T12:55:00Z</time>
      </trkpt>
      <trkpt lat="45.36991" lon="4.53824">
        <ele>1243</ele>
        <time>2010-12-02T12:55:10Z</time>
      </trkpt>
      <trkpt lat="45.36994" lon="4.53837">
        <ele>1241</ele>
        <time>2010-12-02T12:55:25Z</time>
      </trkpt>
      <trkpt lat="45.36996" lon="4.53851">
        <ele>1241</ele>
        <time>2010-12-02T12:58:58Z</time>
      </trkpt>
      <trkpt lat="45.36999" lon="4.53864">
        <ele>1240</ele>
        <time>2010-12-02T12:59:07Z</time>
      </trkpt>
      <trkpt lat="45.37001" lon="4.53877">
        <ele>1236</ele>
        <time>2010-12-02T12:59:17Z</time>
      </trkpt>
      <trkpt lat="45.36999" lon="4.53889">
        <ele>1239</ele>
        <time>2010-12-02T12:59:27Z</time>
      </trkpt>
      <trkpt lat="45.37" lon="4.53903">
        <ele>1239</ele>
        <time>2010-12-02T12:59:40Z</time>
      </trkpt>
      <trkpt lat="45.36996" lon="4.53914">
        <ele>1238</ele>
        <time>2010-12-02T12:59:56Z</time>
      </trkpt>
      <trkpt lat="45.37004" lon="4.53921">
        <ele>1236</ele>
        <time>2010-12-02T13:00:31Z</time>
      </trkpt>
      <trkpt lat="45.37006" lon="4.53934">
        <ele>1233</ele>
        <time>2010-12-02T13:00:56Z</time>
      </trkpt>
      <trkpt lat="45.37002" lon="4.53947">
        <ele>1232</ele>
        <time>2010-12-02T13:01:12Z</time>
      </trkpt>
      <trkpt lat="45.37005" lon="4.53959">
        <ele>1231</ele>
        <time>2010-12-02T13:01:23Z</time>
      </trkpt>
      <trkpt lat="45.36999" lon="4.53969">
        <ele>1232</ele>
        <time>2010-12-02T13:01:32Z</time>
      </trkpt>
      <trkpt lat="45.37005" lon="4.53982">
        <ele>1230</ele>
        <time>2010-12-02T13:01:40Z</time>
      </trkpt>
      <trkpt lat="45.37004" lon="4.53997">
        <ele>1230</ele>
        <time>2010-12-02T13:01:46Z</time>
      </trkpt>
      <trkpt lat="45.37001" lon="4.5401">
        <ele>1228</ele>
        <time>2010-12-02T13:01:55Z</time>
      </trkpt>
      <trkpt lat="45.36996" lon="4.54022">
        <ele>1228</ele>
        <time>2010-12-02T13:02:04Z</time>
      </trkpt>
      <trkpt lat="45.36989" lon="4.54034">
        <ele>1227</ele>
        <time>2010-12-02T13:02:13Z</time>
      </trkpt>
      <trkpt lat="45.36988" lon="4.54049">
        <ele>1227</ele>
        <time>2010-12-02T13:02:22Z</time>
      </trkpt>
      <trkpt lat="45.36984" lon="4.54062">
        <ele>1227</ele>
        <time>2010-12-02T13:02:29Z</time>
      </trkpt>
      <trkpt lat="45.36983" lon="4.54076">
        <ele>1226</ele>
        <time>2010-12-02T13:02:39Z</time>
      </trkpt>
      <trkpt lat="45.36986" lon="4.54089">
        <ele>1225</ele>
        <time>2010-12-02T13:02:47Z</time>
      </trkpt>
      <trkpt lat="45.36987" lon="4.54103">
        <ele>1224</ele>
        <time>2010-12-02T13:02:59Z</time>
      </trkpt>
      <trkpt lat="45.36989" lon="4.54117">
        <ele>1224</ele>
        <time>2010-12-02T13:03:11Z</time>
      </trkpt>
      <trkpt lat="45.3699" lon="4.54132">
        <ele>1224</ele>
        <time>2010-12-02T13:03:20Z</time>
      </trkpt>
      <trkpt lat="45.36992" lon="4.54145">
        <ele>1224</ele>
        <time>2010-12-02T13:03:31Z</time>
      </trkpt>
      <trkpt lat="45.36997" lon="4.54157">
        <ele>1224</ele>
        <time>2010-12-02T13:03:51Z</time>
      </trkpt>
      <trkpt lat="45.36999" lon="4.5417">
        <ele>1224</ele>
        <time>2010-12-02T13:04:03Z</time>
      </trkpt>
      <trkpt lat="45.37002" lon="4.54183">
        <ele>1223</ele>
        <time>2010-12-02T13:04:15Z</time>
      </trkpt>
      <trkpt lat="45.37004" lon="4.54195">
        <ele>1223</ele>
        <time>2010-12-02T13:04:31Z</time>
      </trkpt>
      <trkpt lat="45.37002" lon="4.54209">
        <ele>1222</ele>
        <time>2010-12-02T13:04:49Z</time>
      </trkpt>
      <trkpt lat="45.37" lon="4.54221">
        <ele>1222</ele>
        <time>2010-12-02T13:05:01Z</time>
      </trkpt>
      <trkpt lat="45.37" lon="4.54236">
        <ele>1222</ele>
        <time>2010-12-02T13:05:10Z</time>
      </trkpt>
      <trkpt lat="45.37006" lon="4.54248">
        <ele>1223</ele>
        <time>2010-12-02T13:05:26Z</time>
      </trkpt>
      <trkpt lat="45.37003" lon="4.5426">
        <ele>1223</ele>
        <time>2010-12-02T13:05:39Z</time>
      </trkpt>
      <trkpt lat="45.36997" lon="4.54272">
        <ele>1221</ele>
        <time>2010-12-02T13:05:58Z</time>
      </trkpt>
      <trkpt lat="45.36991" lon="4.54282">
        <ele>1221</ele>
        <time>2010-12-02T13:06:13Z</time>
      </trkpt>
      <trkpt lat="45.36989" lon="4.54294">
        <ele>1221</ele>
        <time>2010-12-02T13:06:24Z</time>
      </trkpt>
      <trkpt lat="45.36979" lon="4.543">
        <ele>1220</ele>
        <time>2010-12-02T13:06:33Z</time>
      </trkpt>
      <trkpt lat="45.36972" lon="4.5431">
        <ele>1220</ele>
        <time>2010-12-02T13:06:47Z</time>
      </trkpt>
      <trkpt lat="45.36964" lon="4.54318">
        <ele>1220</ele>
        <time>2010-12-02T13:06:57Z</time>
      </trkpt>
      <trkpt lat="45.36956" lon="4.54327">
        <ele>1220</ele>
        <time>2010-12-02T13:07:04Z</time>
      </trkpt>
      <trkpt lat="45.36953" lon="4.54341">
        <ele>1223</ele>
        <time>2010-12-02T13:07:20Z</time>
      </trkpt>
      <trkpt lat="45.36949" lon="4.54353">
        <ele>1223</ele>
        <time>2010-12-02T13:07:26Z</time>
      </trkpt>
      <trkpt lat="45.36944" lon="4.54365">
        <ele>1223</ele>
        <time>2010-12-02T13:07:37Z</time>
      </trkpt>
      <trkpt lat="45.36939" lon="4.54378">
        <ele>1224</ele>
        <time>2010-12-02T13:07:47Z</time>
      </trkpt>
      <trkpt lat="45.3693" lon="4.54384">
        <ele>1224</ele>
        <time>2010-12-02T13:07:56Z</time>
      </trkpt>
      <trkpt lat="45.36927" lon="4.54397">
        <ele>1225</ele>
        <time>2010-12-02T13:08:07Z</time>
      </trkpt>
      <trkpt lat="45.36923" lon="4.54409">
        <ele>1227</ele>
        <time>2010-12-02T13:08:19Z</time>
      </trkpt>
      <trkpt lat="45.36919" lon="4.54422">
        <ele>1230</ele>
        <time>2010-12-02T13:08:34Z</time>
      </trkpt>
      <trkpt lat="45.3691" lon="4.5443">
        <ele>1230</ele>
        <time>2010-12-02T13:08:40Z</time>
      </trkpt>
      <trkpt lat="45.36903" lon="4.5444">
        <ele>1231</ele>
        <time>2010-12-02T13:08:56Z</time>
      </trkpt>
      <trkpt lat="45.36895" lon="4.54448">
        <ele>1232</ele>
        <time>2010-12-02T13:09:10Z</time>
      </trkpt>
      <trkpt lat="45.36885" lon="4.54453">
        <ele>1232</ele>
        <time>2010-12-02T13:09:23Z</time>
      </trkpt>
      <trkpt lat="45.36876" lon="4.54453">
        <ele>1232</ele>
        <time>2010-12-02T13:09:36Z</time>
      </trkpt>
      <trkpt lat="45.36866" lon="4.54456">
        <ele>1232</ele>
        <time>2010-12-02T13:09:49Z</time>
      </trkpt>
      <trkpt lat="45.36857" lon="4.54455">
        <ele>1231</ele>
        <time>2010-12-02T13:09:57Z</time>
      </trkpt>
      <trkpt lat="45.36845" lon="4.54458">
        <ele>1231</ele>
        <time>2010-12-02T13:10:08Z</time>
      </trkpt>
      <trkpt lat="45.36835" lon="4.54457">
        <ele>1231</ele>
        <time>2010-12-02T13:10:12Z</time>
      </trkpt>
      <trkpt lat="45.36826" lon="4.54465">
        <ele>1228</ele>
        <time>2010-12-02T13:10:26Z</time>
      </trkpt>
      <trkpt lat="45.36816" lon="4.54464">
        <ele>1227</ele>
        <time>2010-12-02T13:10:34Z</time>
      </trkpt>
      <trkpt lat="45.36806" lon="4.54468">
        <ele>1227</ele>
        <time>2010-12-02T13:10:42Z</time>
      </trkpt>
      <trkpt lat="45.36796" lon="4.54468">
        <ele>1226</ele>
        <time>2010-12-02T13:10:57Z</time>
      </trkpt>
      <trkpt lat="45.36793" lon="4.54481">
        <ele>1227</ele>
        <time>2010-12-02T13:11:11Z</time>
      </trkpt>
      <trkpt lat="45.36787" lon="4.54491">
        <ele>1227</ele>
        <time>2010-12-02T13:11:26Z</time>
      </trkpt>
      <trkpt lat="45.36778" lon="4.54495">
        <ele>1227</ele>
        <time>2010-12-02T13:11:41Z</time>
      </trkpt>
      <trkpt lat="45.36768" lon="4.54496">
        <ele>1227</ele>
        <time>2010-12-02T13:11:50Z</time>
      </trkpt>
      <trkpt lat="45.36759" lon="4.545">
        <ele>1228</ele>
        <time>2010-12-02T13:12:04Z</time>
      </trkpt>
      <trkpt lat="45.3675" lon="4.54507">
        <ele>1232</ele>
        <time>2010-12-02T13:12:15Z</time>
      </trkpt>
      <trkpt lat="45.3674" lon="4.54508">
        <ele>1231</ele>
        <time>2010-12-02T13:12:22Z</time>
      </trkpt>
      <trkpt lat="45.36731" lon="4.5451">
        <ele>1231</ele>
        <time>2010-12-02T13:12:30Z</time>
      </trkpt>
      <trkpt lat="45.3672" lon="4.54511">
        <ele>1232</ele>
        <time>2010-12-02T13:12:40Z</time>
      </trkpt>
      <trkpt lat="45.36712" lon="4.54519">
        <ele>1232</ele>
        <time>2010-12-02T13:12:51Z</time>
      </trkpt>
      <trkpt lat="45.36707" lon="4.54531">
        <ele>1233</ele>
        <time>2010-12-02T13:13:03Z</time>
      </trkpt>
      <trkpt lat="45.36698" lon="4.54534">
        <ele>1233</ele>
        <time>2010-12-02T13:13:12Z</time>
      </trkpt>
      <trkpt lat="45.36688" lon="4.54539">
        <ele>1233</ele>
        <time>2010-12-02T13:13:24Z</time>
      </trkpt>
      <trkpt lat="45.36681" lon="4.54547">
        <ele>1234</ele>
        <time>2010-12-02T13:13:36Z</time>
      </trkpt>
      <trkpt lat="45.36671" lon="4.54549">
        <ele>1234</ele>
        <time>2010-12-02T13:14:14Z</time>
      </trkpt>
      <trkpt lat="45.36662" lon="4.54546">
        <ele>1230</ele>
        <time>2010-12-02T13:14:25Z</time>
      </trkpt>
      <trkpt lat="45.36657" lon="4.54558">
        <ele>1232</ele>
        <time>2010-12-02T13:14:58Z</time>
      </trkpt>
      <trkpt lat="45.36647" lon="4.54563">
        <ele>1232</ele>
        <time>2010-12-02T13:15:08Z</time>
      </trkpt>
      <trkpt lat="45.3664" lon="4.54572">
        <ele>1232</ele>
        <time>2010-12-02T13:15:21Z</time>
      </trkpt>
      <trkpt lat="45.36638" lon="4.54585">
        <ele>1242</ele>
        <time>2010-12-02T13:15:40Z</time>
      </trkpt>
      <trkpt lat="45.36628" lon="4.54584">
        <ele>1242</ele>
        <time>2010-12-02T13:15:48Z</time>
      </trkpt>
      <trkpt lat="45.36618" lon="4.54591">
        <ele>1242</ele>
        <time>2010-12-02T13:16:03Z</time>
      </trkpt>
      <trkpt lat="45.36609" lon="4.54595">
        <ele>1241</ele>
        <time>2010-12-02T13:16:14Z</time>
      </trkpt>
      <trkpt lat="45.366" lon="4.54599">
        <ele>1240</ele>
        <time>2010-12-02T13:16:22Z</time>
      </trkpt>
      <trkpt lat="45.36592" lon="4.54605">
        <ele>1240</ele>
        <time>2010-12-02T13:16:30Z</time>
      </trkpt>
      <trkpt lat="45.36583" lon="4.5461">
        <ele>1232</ele>
        <time>2010-12-02T13:16:41Z</time>
      </trkpt>
      <trkpt lat="45.36574" lon="4.54616">
        <ele>1232</ele>
        <time>2010-12-02T13:16:47Z</time>
      </trkpt>
      <trkpt lat="45.36566" lon="4.54626">
        <ele>1232</ele>
        <time>2010-12-02T13:17:00Z</time>
      </trkpt>
      <trkpt lat="45.36559" lon="4.54636">
        <ele>1232</ele>
        <time>2010-12-02T13:17:11Z</time>
      </trkpt>
      <trkpt lat="45.36552" lon="4.54646">
        <ele>1232</ele>
        <time>2010-12-02T13:17:21Z</time>
      </trkpt>
      <trkpt lat="45.36546" lon="4.54656">
        <ele>1232</ele>
        <time>2010-12-02T13:17:30Z</time>
      </trkpt>
      <trkpt lat="45.3654" lon="4.54666">
        <ele>1231</ele>
        <time>2010-12-02T13:17:38Z</time>
      </trkpt>
      <trkpt lat="45.36533" lon="4.54676">
        <ele>1237</ele>
        <time>2010-12-02T13:17:46Z</time>
      </trkpt>
      <trkpt lat="45.36528" lon="4.5469">
        <ele>1237</ele>
        <time>2010-12-02T13:17:54Z</time>
      </trkpt>
      <trkpt lat="45.36521" lon="4.54699">
        <ele>1237</ele>
        <time>2010-12-02T13:18:05Z</time>
      </trkpt>
      <trkpt lat="45.36516" lon="4.54711">
        <ele>1238</ele>
        <time>2010-12-02T13:18:15Z</time>
      </trkpt>
      <trkpt lat="45.36514" lon="4.54725">
        <ele>1239</ele>
        <time>2010-12-02T13:18:23Z</time>
      </trkpt>
      <trkpt lat="45.36507" lon="4.54735">
        <ele>1238</ele>
        <time>2010-12-02T13:18:32Z</time>
      </trkpt>
      <trkpt lat="45.36501" lon="4.54745">
        <ele>1237</ele>
        <time>2010-12-02T13:18:41Z</time>
      </trkpt>
      <trkpt lat="45.36493" lon="4.54753">
        <ele>1233</ele>
        <time>2010-12-02T13:18:50Z</time>
      </trkpt>
      <trkpt lat="45.36488" lon="4.54765">
        <ele>1231</ele>
        <time>2010-12-02T13:19:01Z</time>
      </trkpt>
      <trkpt lat="45.36485" lon="4.54778">
        <ele>1229</ele>
        <time>2010-12-02T13:19:12Z</time>
      </trkpt>
      <trkpt lat="45.36477" lon="4.54786">
        <ele>1228</ele>
        <time>2010-12-02T13:19:21Z</time>
      </trkpt>
      <trkpt lat="45.3647" lon="4.54796">
        <ele>1228</ele>
        <time>2010-12-02T13:19:30Z</time>
      </trkpt>
      <trkpt lat="45.36471" lon="4.5481">
        <ele>1229</ele>
        <time>2010-12-02T13:19:50Z</time>
      </trkpt>
      <trkpt lat="45.36466" lon="4.54822">
        <ele>1229</ele>
        <time>2010-12-02T13:20:00Z</time>
      </trkpt>
      <trkpt lat="45.36464" lon="4.54836">
        <ele>1232</ele>
        <time>2010-12-02T13:20:16Z</time>
      </trkpt>
      <trkpt lat="45.36457" lon="4.54846">
        <ele>1230</ele>
        <time>2010-12-02T13:20:30Z</time>
      </trkpt>
      <trkpt lat="45.36454" lon="4.54859">
        <ele>1230</ele>
        <time>2010-12-02T13:20:42Z</time>
      </trkpt>
      <trkpt lat="45.36453" lon="4.54873">
        <ele>1230</ele>
        <time>2010-12-02T13:20:52Z</time>
      </trkpt>
      <trkpt lat="45.36448" lon="4.54885">
        <ele>1230</ele>
        <time>2010-12-02T13:21:00Z</time>
      </trkpt>
      <trkpt lat="45.36444" lon="4.54897">
        <ele>1229</ele>
        <time>2010-12-02T13:21:13Z</time>
      </trkpt>
      <trkpt lat="45.36441" lon="4.5491">
        <ele>1228</ele>
        <time>2010-12-02T13:21:30Z</time>
      </trkpt>
      <trkpt lat="45.36437" lon="4.54923">
        <ele>1229</ele>
        <time>2010-12-02T13:21:40Z</time>
      </trkpt>
      <trkpt lat="45.36432" lon="4.54936">
        <ele>1229</ele>
        <time>2010-12-02T13:21:48Z</time>
      </trkpt>
      <trkpt lat="45.36431" lon="4.54949">
        <ele>1231</ele>
        <time>2010-12-02T13:21:57Z</time>
      </trkpt>
      <trkpt lat="45.36427" lon="4.54962">
        <ele>1231</ele>
        <time>2010-12-02T13:22:07Z</time>
      </trkpt>
      <trkpt lat="45.36426" lon="4.54977">
        <ele>1230</ele>
        <time>2010-12-02T13:22:15Z</time>
      </trkpt>
      <trkpt lat="45.36422" lon="4.5499">
        <ele>1228</ele>
        <time>2010-12-02T13:22:24Z</time>
      </trkpt>
      <trkpt lat="45.36419" lon="4.55003">
        <ele>1226</ele>
        <time>2010-12-02T13:22:33Z</time>
      </trkpt>
      <trkpt lat="45.36416" lon="4.55016">
        <ele>1218</ele>
        <time>2010-12-02T13:22:55Z</time>
      </trkpt>
      <trkpt lat="45.36412" lon="4.55028">
        <ele>1216</ele>
        <time>2010-12-02T13:23:08Z</time>
      </trkpt>
      <trkpt lat="45.3641" lon="4.55042">
        <ele>1216</ele>
        <time>2010-12-02T13:23:17Z</time>
      </trkpt>
      <trkpt lat="45.36408" lon="4.55055">
        <ele>1216</ele>
        <time>2010-12-02T13:23:28Z</time>
      </trkpt>
      <trkpt lat="45.36405" lon="4.55069">
        <ele>1218</ele>
        <time>2010-12-02T13:23:37Z</time>
      </trkpt>
      <trkpt lat="45.36402" lon="4.55081">
        <ele>1218</ele>
        <time>2010-12-02T13:23:47Z</time>
      </trkpt>
      <trkpt lat="45.36402" lon="4.55096">
        <ele>1218</ele>
        <time>2010-12-02T13:23:56Z</time>
      </trkpt>
      <trkpt lat="45.36399" lon="4.55109">
        <ele>1216</ele>
        <time>2010-12-02T13:24:05Z</time>
      </trkpt>
      <trkpt lat="45.36396" lon="4.55122">
        <ele>1215</ele>
        <time>2010-12-02T13:24:14Z</time>
      </trkpt>
      <trkpt lat="45.36391" lon="4.55135">
        <ele>1215</ele>
        <time>2010-12-02T13:24:24Z</time>
      </trkpt>
      <trkpt lat="45.3639" lon="4.55149">
        <ele>1215</ele>
        <time>2010-12-02T13:24:32Z</time>
      </trkpt>
      <trkpt lat="45.36386" lon="4.5516">
        <ele>1215</ele>
        <time>2010-12-02T13:24:40Z</time>
      </trkpt>
      <trkpt lat="45.36387" lon="4.55175">
        <ele>1216</ele>
        <time>2010-12-02T13:24:48Z</time>
      </trkpt>
      <trkpt lat="45.36387" lon="4.55189">
        <ele>1216</ele>
        <time>2010-12-02T13:24:59Z</time>
      </trkpt>
      <trkpt lat="45.36386" lon="4.55202">
        <ele>1215</ele>
        <time>2010-12-02T13:25:08Z</time>
      </trkpt>
      <trkpt lat="45.36388" lon="4.55216">
        <ele>1216</ele>
        <time>2010-12-02T13:25:23Z</time>
      </trkpt>
      <trkpt lat="45.36379" lon="4.55221">
        <ele>1214</ele>
        <time>2010-12-02T13:26:11Z</time>
      </trkpt>
      <trkpt lat="45.36376" lon="4.55235">
        <ele>1214</ele>
        <time>2010-12-02T13:27:31Z</time>
      </trkpt>
      <trkpt lat="45.36376" lon="4.55248">
        <ele>1214</ele>
        <time>2010-12-02T13:27:50Z</time>
      </trkpt>
      <trkpt lat="45.36379" lon="4.55262">
        <ele>1215</ele>
        <time>2010-12-02T13:28:01Z</time>
      </trkpt>
      <trkpt lat="45.36383" lon="4.55274">
        <ele>1216</ele>
        <time>2010-12-02T13:28:15Z</time>
      </trkpt>
      <trkpt lat="45.36386" lon="4.55287">
        <ele>1216</ele>
        <time>2010-12-02T13:28:27Z</time>
      </trkpt>
      <trkpt lat="45.36388" lon="4.553">
        <ele>1217</ele>
        <time>2010-12-02T13:28:39Z</time>
      </trkpt>
      <trkpt lat="45.3639" lon="4.55315">
        <ele>1217</ele>
        <time>2010-12-02T13:28:48Z</time>
      </trkpt>
      <trkpt lat="45.36396" lon="4.55326">
        <ele>1219</ele>
        <time>2010-12-02T13:28:58Z</time>
      </trkpt>
      <trkpt lat="45.36393" lon="4.55339">
        <ele>1220</ele>
        <time>2010-12-02T13:29:26Z</time>
      </trkpt>
      <trkpt lat="45.36401" lon="4.55349">
        <ele>1221</ele>
        <time>2010-12-02T13:29:38Z</time>
      </trkpt>
      <trkpt lat="45.36405" lon="4.55361">
        <ele>1221</ele>
        <time>2010-12-02T13:31:23Z</time>
      </trkpt>
      <trkpt lat="45.36409" lon="4.55373">
        <ele>1221</ele>
        <time>2010-12-02T13:31:37Z</time>
      </trkpt>
      <trkpt lat="45.36413" lon="4.55386">
        <ele>1222</ele>
        <time>2010-12-02T13:31:50Z</time>
      </trkpt>
      <trkpt lat="45.36417" lon="4.55398">
        <ele>1235</ele>
        <time>2010-12-02T13:32:21Z</time>
      </trkpt>
      <trkpt lat="45.36421" lon="4.55412">
        <ele>1232</ele>
        <time>2010-12-02T13:32:34Z</time>
      </trkpt>
      <trkpt lat="45.36427" lon="4.55423">
        <ele>1234</ele>
        <time>2010-12-02T13:32:48Z</time>
      </trkpt>
      <trkpt lat="45.36431" lon="4.55435">
        <ele>1237</ele>
        <time>2010-12-02T13:32:59Z</time>
      </trkpt>
      <trkpt lat="45.36437" lon="4.55447">
        <ele>1238</ele>
        <time>2010-12-02T13:33:16Z</time>
      </trkpt>
      <trkpt lat="45.36438" lon="4.5546">
        <ele>1239</ele>
        <time>2010-12-02T13:33:29Z</time>
      </trkpt>
      <trkpt lat="45.36445" lon="4.55471">
        <ele>1239</ele>
        <time>2010-12-02T13:33:49Z</time>
      </trkpt>
      <trkpt lat="45.3645" lon="4.55484">
        <ele>1240</ele>
        <time>2010-12-02T13:33:59Z</time>
      </trkpt>
      <trkpt lat="45.36459" lon="4.55487">
        <ele>1241</ele>
        <time>2010-12-02T13:34:20Z</time>
      </trkpt>
      <trkpt lat="45.36458" lon="4.55501">
        <ele>1241</ele>
        <time>2010-12-02T13:36:04Z</time>
      </trkpt>
      <trkpt lat="45.36464" lon="4.55511">
        <ele>1242</ele>
        <time>2010-12-02T13:36:16Z</time>
      </trkpt>
      <trkpt lat="45.36471" lon="4.5552">
        <ele>1243</ele>
        <time>2010-12-02T13:36:38Z</time>
      </trkpt>
      <trkpt lat="45.36478" lon="4.55531">
        <ele>1244</ele>
        <time>2010-12-02T13:36:56Z</time>
      </trkpt>
      <trkpt lat="45.36485" lon="4.55541">
        <ele>1244</ele>
        <time>2010-12-02T13:37:10Z</time>
      </trkpt>
      <trkpt lat="45.36491" lon="4.55552">
        <ele>1245</ele>
        <time>2010-12-02T13:37:23Z</time>
      </trkpt>
      <trkpt lat="45.36501" lon="4.55559">
        <ele>1256</ele>
        <time>2010-12-02T13:37:36Z</time>
      </trkpt>
      <trkpt lat="45.36508" lon="4.55568">
        <ele>1256</ele>
        <time>2010-12-02T13:37:52Z</time>
      </trkpt>
      <trkpt lat="45.36517" lon="4.55573">
        <ele>1256</ele>
        <time>2010-12-02T13:38:09Z</time>
      </trkpt>
      <trkpt lat="45.36524" lon="4.55583">
        <ele>1257</ele>
        <time>2010-12-02T13:38:18Z</time>
      </trkpt>
      <trkpt lat="45.36533" lon="4.55592">
        <ele>1255</ele>
        <time>2010-12-02T13:38:36Z</time>
      </trkpt>
      <trkpt lat="45.3654" lon="4.55601">
        <ele>1256</ele>
        <time>2010-12-02T13:38:50Z</time>
      </trkpt>
      <trkpt lat="45.3655" lon="4.55606">
        <ele>1257</ele>
        <time>2010-12-02T13:39:05Z</time>
      </trkpt>
      <trkpt lat="45.36556" lon="4.55616">
        <ele>1257</ele>
        <time>2010-12-02T13:39:18Z</time>
      </trkpt>
      <trkpt lat="45.36564" lon="4.55624">
        <ele>1257</ele>
        <time>2010-12-02T13:39:34Z</time>
      </trkpt>
      <trkpt lat="45.36573" lon="4.55629">
        <ele>1257</ele>
        <time>2010-12-02T13:39:52Z</time>
      </trkpt>
      <trkpt lat="45.36581" lon="4.55636">
        <ele>1257</ele>
        <time>2010-12-02T13:40:10Z</time>
      </trkpt>
      <trkpt lat="45.3659" lon="4.55646">
        <ele>1267</ele>
        <time>2010-12-02T13:40:23Z</time>
      </trkpt>
      <trkpt lat="45.36597" lon="4.55654">
        <ele>1267</ele>
        <time>2010-12-02T13:40:38Z</time>
      </trkpt>
      <trkpt lat="45.36604" lon="4.55663">
        <ele>1268</ele>
        <time>2010-12-02T13:40:52Z</time>
      </trkpt>
      <trkpt lat="45.36612" lon="4.5567">
        <ele>1262</ele>
        <time>2010-12-02T13:41:10Z</time>
      </trkpt>
      <trkpt lat="45.36621" lon="4.55673">
        <ele>1264</ele>
        <time>2010-12-02T13:41:27Z</time>
      </trkpt>
      <trkpt lat="45.36631" lon="4.55678">
        <ele>1266</ele>
        <time>2010-12-02T13:41:39Z</time>
      </trkpt>
      <trkpt lat="45.36639" lon="4.55685">
        <ele>1267</ele>
        <time>2010-12-02T13:41:59Z</time>
      </trkpt>
      <trkpt lat="45.36649" lon="4.55686">
        <ele>1269</ele>
        <time>2010-12-02T13:42:11Z</time>
      </trkpt>
      <trkpt lat="45.36657" lon="4.55689">
        <ele>1269</ele>
        <time>2010-12-02T13:42:24Z</time>
      </trkpt>
      <trkpt lat="45.36666" lon="4.55694">
        <ele>1269</ele>
        <time>2010-12-02T13:42:39Z</time>
      </trkpt>
      <trkpt lat="45.36674" lon="4.557">
        <ele>1281</ele>
        <time>2010-12-02T13:43:00Z</time>
      </trkpt>
      <trkpt lat="45.36683" lon="4.55705">
        <ele>1281</ele>
        <time>2010-12-02T13:43:14Z</time>
      </trkpt>
      <trkpt lat="45.36693" lon="4.55706">
        <ele>1282</ele>
        <time>2010-12-02T13:43:32Z</time>
      </trkpt>
      <trkpt lat="45.36701" lon="4.55713">
        <ele>1282</ele>
        <time>2010-12-02T13:43:55Z</time>
      </trkpt>
      <trkpt lat="45.3671" lon="4.55718">
        <ele>1282</ele>
        <time>2010-12-02T13:44:07Z</time>
      </trkpt>
      <trkpt lat="45.36719" lon="4.55719">
        <ele>1284</ele>
        <time>2010-12-02T13:44:20Z</time>
      </trkpt>
      <trkpt lat="45.36728" lon="4.55725">
        <ele>1284</ele>
        <time>2010-12-02T13:44:45Z</time>
      </trkpt>
      <trkpt lat="45.36736" lon="4.55732">
        <ele>1284</ele>
        <time>2010-12-02T13:45:16Z</time>
      </trkpt>
      <trkpt lat="45.36744" lon="4.55741">
        <ele>1284</ele>
        <time>2010-12-02T13:45:38Z</time>
      </trkpt>
      <trkpt lat="45.36751" lon="4.55749">
        <ele>1286</ele>
        <time>2010-12-02T13:45:59Z</time>
      </trkpt>
      <trkpt lat="45.36759" lon="4.55757">
        <ele>1285</ele>
        <time>2010-12-02T13:46:11Z</time>
      </trkpt>
      <trkpt lat="45.36768" lon="4.55762">
        <ele>1284</ele>
        <time>2010-12-02T13:46:23Z</time>
      </trkpt>
      <trkpt lat="45.36778" lon="4.55765">
        <ele>1285</ele>
        <time>2010-12-02T13:46:36Z</time>
      </trkpt>
      <trkpt lat="45.36787" lon="4.55769">
        <ele>1285</ele>
        <time>2010-12-02T13:46:48Z</time>
      </trkpt>
      <trkpt lat="45.36797" lon="4.55769">
        <ele>1287</ele>
        <time>2010-12-02T13:46:57Z</time>
      </trkpt>
      <trkpt lat="45.36805" lon="4.55777">
        <ele>1287</ele>
        <time>2010-12-02T13:47:17Z</time>
      </trkpt>
      <trkpt lat="45.36814" lon="4.55774">
        <ele>1289</ele>
        <time>2010-12-02T13:47:27Z</time>
      </trkpt>
      <trkpt lat="45.36824" lon="4.55776">
        <ele>1290</ele>
        <time>2010-12-02T13:47:45Z</time>
      </trkpt>
      <trkpt lat="45.36833" lon="4.55775">
        <ele>1297</ele>
        <time>2010-12-02T13:47:56Z</time>
      </trkpt>
      <trkpt lat="45.36843" lon="4.55774">
        <ele>1298</ele>
        <time>2010-12-02T13:48:06Z</time>
      </trkpt>
      <trkpt lat="45.36852" lon="4.55774">
        <ele>1298</ele>
        <time>2010-12-02T13:48:20Z</time>
      </trkpt>
      <trkpt lat="45.36863" lon="4.55775">
        <ele>1298</ele>
        <time>2010-12-02T13:48:32Z</time>
      </trkpt>
      <trkpt lat="45.36873" lon="4.55774">
        <ele>1298</ele>
        <time>2010-12-02T13:48:47Z</time>
      </trkpt>
      <trkpt lat="45.36882" lon="4.55777">
        <ele>1298</ele>
        <time>2010-12-02T13:49:02Z</time>
      </trkpt>
      <trkpt lat="45.36892" lon="4.55779">
        <ele>1299</ele>
        <time>2010-12-02T13:49:17Z</time>
      </trkpt>
      <trkpt lat="45.36901" lon="4.55778">
        <ele>1300</ele>
        <time>2010-12-02T13:49:28Z</time>
      </trkpt>
      <trkpt lat="45.36911" lon="4.55783">
        <ele>1300</ele>
        <time>2010-12-02T13:49:39Z</time>
      </trkpt>
      <trkpt lat="45.36921" lon="4.55786">
        <ele>1304</ele>
        <time>2010-12-02T13:49:58Z</time>
      </trkpt>
      <trkpt lat="45.36931" lon="4.55788">
        <ele>1304</ele>
        <time>2010-12-02T13:50:10Z</time>
      </trkpt>
      <trkpt lat="45.3694" lon="4.55794">
        <ele>1304</ele>
        <time>2010-12-02T13:50:23Z</time>
      </trkpt>
      <trkpt lat="45.3695" lon="4.55806">
        <ele>1304</ele>
        <time>2010-12-02T13:50:34Z</time>
      </trkpt>
      <trkpt lat="45.36957" lon="4.55816">
        <ele>1303</ele>
        <time>2010-12-02T13:50:45Z</time>
      </trkpt>
      <trkpt lat="45.36966" lon="4.55819">
        <ele>1304</ele>
        <time>2010-12-02T13:50:54Z</time>
      </trkpt>
      <trkpt lat="45.36975" lon="4.55827">
        <ele>1305</ele>
        <time>2010-12-02T13:51:06Z</time>
      </trkpt>
      <trkpt lat="45.36983" lon="4.55834">
        <ele>1300</ele>
        <time>2010-12-02T13:51:29Z</time>
      </trkpt>
      <trkpt lat="45.3699" lon="4.55844">
        <ele>1301</ele>
        <time>2010-12-02T13:51:41Z</time>
      </trkpt>
      <trkpt lat="45.36998" lon="4.55853">
        <ele>1300</ele>
        <time>2010-12-02T13:51:57Z</time>
      </trkpt>
      <trkpt lat="45.37004" lon="4.55863">
        <ele>1307</ele>
        <time>2010-12-02T13:53:08Z</time>
      </trkpt>
      <trkpt lat="45.37009" lon="4.55875">
        <ele>1306</ele>
        <time>2010-12-02T13:53:26Z</time>
      </trkpt>
      <trkpt lat="45.37014" lon="4.55887">
        <ele>1306</ele>
        <time>2010-12-02T13:53:39Z</time>
      </trkpt>
      <trkpt lat="45.37021" lon="4.55895">
        <ele>1306</ele>
        <time>2010-12-02T13:53:50Z</time>
      </trkpt>
      <trkpt lat="45.37026" lon="4.55907">
        <ele>1306</ele>
        <time>2010-12-02T13:54:03Z</time>
      </trkpt>
      <trkpt lat="45.37035" lon="4.55914">
        <ele>1307</ele>
        <time>2010-12-02T13:54:13Z</time>
      </trkpt>
      <trkpt lat="45.37044" lon="4.5592">
        <ele>1305</ele>
        <time>2010-12-02T13:54:24Z</time>
      </trkpt>
      <trkpt lat="45.37053" lon="4.55926">
        <ele>1306</ele>
        <time>2010-12-02T13:54:38Z</time>
      </trkpt>
      <trkpt lat="45.37062" lon="4.55928">
        <ele>1307</ele>
        <time>2010-12-02T13:54:47Z</time>
      </trkpt>
      <trkpt lat="45.37071" lon="4.55935">
        <ele>1307</ele>
        <time>2010-12-02T13:54:56Z</time>
      </trkpt>
      <trkpt lat="45.3708" lon="4.55938">
        <ele>1308</ele>
        <time>2010-12-02T13:55:01Z</time>
      </trkpt>
      <trkpt lat="45.37088" lon="4.55946">
        <ele>1312</ele>
        <time>2010-12-02T13:55:16Z</time>
      </trkpt>
      <trkpt lat="45.37097" lon="4.55951">
        <ele>1311</ele>
        <time>2010-12-02T13:55:23Z</time>
      </trkpt>
      <trkpt lat="45.37106" lon="4.55959">
        <ele>1311</ele>
        <time>2010-12-02T13:55:36Z</time>
      </trkpt>
      <trkpt lat="45.37116" lon="4.55961">
        <ele>1311</ele>
        <time>2010-12-02T13:55:46Z</time>
      </trkpt>
      <trkpt lat="45.37126" lon="4.55962">
        <ele>1311</ele>
        <time>2010-12-02T13:56:02Z</time>
      </trkpt>
      <trkpt lat="45.37135" lon="4.5597">
        <ele>1312</ele>
        <time>2010-12-02T13:56:09Z</time>
      </trkpt>
      <trkpt lat="45.37144" lon="4.55973">
        <ele>1312</ele>
        <time>2010-12-02T13:56:22Z</time>
      </trkpt>
      <trkpt lat="45.37153" lon="4.55973">
        <ele>1312</ele>
        <time>2010-12-02T13:56:30Z</time>
      </trkpt>
      <trkpt lat="45.3716" lon="4.55984">
        <ele>1312</ele>
        <time>2010-12-02T13:56:39Z</time>
      </trkpt>
      <trkpt lat="45.37167" lon="4.55993">
        <ele>1311</ele>
        <time>2010-12-02T13:56:49Z</time>
      </trkpt>
      <trkpt lat="45.37176" lon="4.55999">
        <ele>1311</ele>
        <time>2010-12-02T13:56:59Z</time>
      </trkpt>
      <trkpt lat="45.37185" lon="4.56005">
        <ele>1309</ele>
        <time>2010-12-02T13:57:12Z</time>
      </trkpt>
      <trkpt lat="45.37195" lon="4.56006">
        <ele>1308</ele>
        <time>2010-12-02T13:57:20Z</time>
      </trkpt>
      <trkpt lat="45.37201" lon="4.56016">
        <ele>1308</ele>
        <time>2010-12-02T13:57:28Z</time>
      </trkpt>
      <trkpt lat="45.37208" lon="4.56025">
        <ele>1307</ele>
        <time>2010-12-02T13:57:52Z</time>
      </trkpt>
      <trkpt lat="45.37217" lon="4.5603">
        <ele>1307</ele>
        <time>2010-12-02T13:58:04Z</time>
      </trkpt>
      <trkpt lat="45.37225" lon="4.5604">
        <ele>1306</ele>
        <time>2010-12-02T13:58:14Z</time>
      </trkpt>
      <trkpt lat="45.37231" lon="4.5605">
        <ele>1306</ele>
        <time>2010-12-02T13:58:24Z</time>
      </trkpt>
      <trkpt lat="45.37237" lon="4.56061">
        <ele>1306</ele>
        <time>2010-12-02T13:58:32Z</time>
      </trkpt>
      <trkpt lat="45.37244" lon="4.56069">
        <ele>1306</ele>
        <time>2010-12-02T13:58:40Z</time>
      </trkpt>
      <trkpt lat="45.3725" lon="4.5608">
        <ele>1304</ele>
        <time>2010-12-02T13:58:54Z</time>
      </trkpt>
      <trkpt lat="45.37257" lon="4.5609">
        <ele>1303</ele>
        <time>2010-12-02T13:59:01Z</time>
      </trkpt>
      <trkpt lat="45.37261" lon="4.56103">
        <ele>1302</ele>
        <time>2010-12-02T13:59:09Z</time>
      </trkpt>
      <trkpt lat="45.37268" lon="4.56112">
        <ele>1301</ele>
        <time>2010-12-02T13:59:22Z</time>
      </trkpt>
      <trkpt lat="45.37276" lon="4.56122">
        <ele>1300</ele>
        <time>2010-12-02T13:59:31Z</time>
      </trkpt>
      <trkpt lat="45.37281" lon="4.56135">
        <ele>1300</ele>
        <time>2010-12-02T13:59:45Z</time>
      </trkpt>
      <trkpt lat="45.37286" lon="4.56147">
        <ele>1300</ele>
        <time>2010-12-02T13:59:54Z</time>
      </trkpt>
      <trkpt lat="45.37294" lon="4.56155">
        <ele>1300</ele>
        <time>2010-12-02T14:00:03Z</time>
      </trkpt>
      <trkpt lat="45.37301" lon="4.56165">
        <ele>1300</ele>
        <time>2010-12-02T14:00:14Z</time>
      </trkpt>
      <trkpt lat="45.37307" lon="4.56175">
        <ele>1299</ele>
        <time>2010-12-02T14:00:23Z</time>
      </trkpt>
      <trkpt lat="45.37314" lon="4.56184">
        <ele>1299</ele>
        <time>2010-12-02T14:00:33Z</time>
      </trkpt>
      <trkpt lat="45.3732" lon="4.56194">
        <ele>1299</ele>
        <time>2010-12-02T14:00:56Z</time>
      </trkpt>
      <trkpt lat="45.37329" lon="4.562">
        <ele>1299</ele>
        <time>2010-12-02T14:01:09Z</time>
      </trkpt>
      <trkpt lat="45.37336" lon="4.56209">
        <ele>1301</ele>
        <time>2010-12-02T14:01:23Z</time>
      </trkpt>
      <trkpt lat="45.37343" lon="4.56219">
        <ele>1301</ele>
        <time>2010-12-02T14:01:41Z</time>
      </trkpt>
      <trkpt lat="45.37348" lon="4.5623">
        <ele>1301</ele>
        <time>2010-12-02T14:01:55Z</time>
      </trkpt>
      <trkpt lat="45.37356" lon="4.56238">
        <ele>1301</ele>
        <time>2010-12-02T14:02:14Z</time>
      </trkpt>
      <trkpt lat="45.37364" lon="4.56245">
        <ele>1302</ele>
        <time>2010-12-02T14:02:29Z</time>
      </trkpt>
      <trkpt lat="45.37373" lon="4.56253">
        <ele>1305</ele>
        <time>2010-12-02T14:02:43Z</time>
      </trkpt>
      <trkpt lat="45.3738" lon="4.56263">
        <ele>1306</ele>
        <time>2010-12-02T14:03:49Z</time>
      </trkpt>
      <trkpt lat="45.3739" lon="4.56267">
        <ele>1307</ele>
        <time>2010-12-02T14:03:59Z</time>
      </trkpt>
      <trkpt lat="45.37399" lon="4.56271">
        <ele>1307</ele>
        <time>2010-12-02T14:04:12Z</time>
      </trkpt>
      <trkpt lat="45.37406" lon="4.56279">
        <ele>1308</ele>
        <time>2010-12-02T14:04:24Z</time>
      </trkpt>
      <trkpt lat="45.37413" lon="4.56288">
        <ele>1308</ele>
        <time>2010-12-02T14:04:47Z</time>
      </trkpt>
      <trkpt lat="45.37422" lon="4.56294">
        <ele>1314</ele>
        <time>2010-12-02T14:05:09Z</time>
      </trkpt>
      <trkpt lat="45.37429" lon="4.56303">
        <ele>1315</ele>
        <time>2010-12-02T14:05:23Z</time>
      </trkpt>
      <trkpt lat="45.37437" lon="4.56309">
        <ele>1315</ele>
        <time>2010-12-02T14:05:35Z</time>
      </trkpt>
      <trkpt lat="45.37444" lon="4.56317">
        <ele>1315</ele>
        <time>2010-12-02T14:05:43Z</time>
      </trkpt>
      <trkpt lat="45.37453" lon="4.56326">
        <ele>1316</ele>
        <time>2010-12-02T14:05:54Z</time>
      </trkpt>
      <trkpt lat="45.37462" lon="4.56333">
        <ele>1317</ele>
        <time>2010-12-02T14:06:07Z</time>
      </trkpt>
      <trkpt lat="45.37471" lon="4.56335">
        <ele>1322</ele>
        <time>2010-12-02T14:06:16Z</time>
      </trkpt>
      <trkpt lat="45.37475" lon="4.56349">
        <ele>1322</ele>
        <time>2010-12-02T14:06:27Z</time>
      </trkpt>
      <trkpt lat="45.37484" lon="4.56349">
        <ele>1323</ele>
        <time>2010-12-02T14:06:41Z</time>
      </trkpt>
      <trkpt lat="45.37494" lon="4.56355">
        <ele>1323</ele>
        <time>2010-12-02T14:06:48Z</time>
      </trkpt>
      <trkpt lat="45.375" lon="4.56366">
        <ele>1323</ele>
        <time>2010-12-02T14:07:00Z</time>
      </trkpt>
      <trkpt lat="45.37506" lon="4.56375">
        <ele>1329</ele>
        <time>2010-12-02T14:07:11Z</time>
      </trkpt>
      <trkpt lat="45.37515" lon="4.56383">
        <ele>1329</ele>
        <time>2010-12-02T14:07:21Z</time>
      </trkpt>
      <trkpt lat="45.37523" lon="4.56391">
        <ele>1329</ele>
        <time>2010-12-02T14:07:28Z</time>
      </trkpt>
      <trkpt lat="45.37532" lon="4.56386">
        <ele>1329</ele>
        <time>2010-12-02T14:07:37Z</time>
      </trkpt>
      <trkpt lat="45.37543" lon="4.5639">
        <ele>1330</ele>
        <time>2010-12-02T14:07:51Z</time>
      </trkpt>
      <trkpt lat="45.37552" lon="4.56391">
        <ele>1330</ele>
        <time>2010-12-02T14:08:02Z</time>
      </trkpt>
      <trkpt lat="45.37562" lon="4.56395">
        <ele>1330</ele>
        <time>2010-12-02T14:08:16Z</time>
      </trkpt>
      <trkpt lat="45.37572" lon="4.56397">
        <ele>1331</ele>
        <time>2010-12-02T14:08:33Z</time>
      </trkpt>
      <trkpt lat="45.3758" lon="4.56404">
        <ele>1332</ele>
        <time>2010-12-02T14:08:46Z</time>
      </trkpt>
      <trkpt lat="45.37589" lon="4.56407">
        <ele>1333</ele>
        <time>2010-12-02T14:08:55Z</time>
      </trkpt>
      <trkpt lat="45.376" lon="4.56406">
        <ele>1333</ele>
        <time>2010-12-02T14:09:02Z</time>
      </trkpt>
      <trkpt lat="45.37608" lon="4.5641">
        <ele>1333</ele>
        <time>2010-12-02T14:09:11Z</time>
      </trkpt>
      <trkpt lat="45.37617" lon="4.56413">
        <ele>1334</ele>
        <time>2010-12-02T14:09:21Z</time>
      </trkpt>
      <trkpt lat="45.37627" lon="4.56415">
        <ele>1334</ele>
        <time>2010-12-02T14:09:37Z</time>
      </trkpt>
      <trkpt lat="45.37638" lon="4.56423">
        <ele>1340</ele>
        <time>2010-12-02T14:09:51Z</time>
      </trkpt>
      <trkpt lat="45.37646" lon="4.5643">
        <ele>1340</ele>
        <time>2010-12-02T14:10:04Z</time>
      </trkpt>
      <trkpt lat="45.37655" lon="4.56438">
        <ele>1341</ele>
        <time>2010-12-02T14:10:19Z</time>
      </trkpt>
      <trkpt lat="45.37659" lon="4.56449">
        <ele>1341</ele>
        <time>2010-12-02T14:10:33Z</time>
      </trkpt>
      <trkpt lat="45.37668" lon="4.56457">
        <ele>1344</ele>
        <time>2010-12-02T14:10:51Z</time>
      </trkpt>
      <trkpt lat="45.37672" lon="4.56469">
        <ele>1345</ele>
        <time>2010-12-02T14:11:06Z</time>
      </trkpt>
      <trkpt lat="45.3768" lon="4.56478">
        <ele>1346</ele>
        <time>2010-12-02T14:11:14Z</time>
      </trkpt>
      <trkpt lat="45.37684" lon="4.5649">
        <ele>1346</ele>
        <time>2010-12-02T14:11:35Z</time>
      </trkpt>
      <trkpt lat="45.37693" lon="4.56495">
        <ele>1346</ele>
        <time>2010-12-02T14:11:46Z</time>
      </trkpt>
      <trkpt lat="45.37698" lon="4.56507">
        <ele>1352</ele>
        <time>2010-12-02T14:11:57Z</time>
      </trkpt>
      <trkpt lat="45.37703" lon="4.56518">
        <ele>1353</ele>
        <time>2010-12-02T14:12:11Z</time>
      </trkpt>
      <trkpt lat="45.3771" lon="4.56528">
        <ele>1353</ele>
        <time>2010-12-02T14:12:27Z</time>
      </trkpt>
      <trkpt lat="45.37719" lon="4.56533">
        <ele>1353</ele>
        <time>2010-12-02T14:12:38Z</time>
      </trkpt>
      <trkpt lat="45.37725" lon="4.56543">
        <ele>1354</ele>
        <time>2010-12-02T14:12:53Z</time>
      </trkpt>
      <trkpt lat="45.37733" lon="4.56553">
        <ele>1355</ele>
        <time>2010-12-02T14:13:09Z</time>
      </trkpt>
      <trkpt lat="45.37742" lon="4.5656">
        <ele>1356</ele>
        <time>2010-12-02T14:13:20Z</time>
      </trkpt>
      <trkpt lat="45.3775" lon="4.56569">
        <ele>1357</ele>
        <time>2010-12-02T14:13:31Z</time>
      </trkpt>
      <trkpt lat="45.37759" lon="4.56573">
        <ele>1357</ele>
        <time>2010-12-02T14:13:42Z</time>
      </trkpt>
      <trkpt lat="45.37761" lon="4.56587">
        <ele>1361</ele>
        <time>2010-12-02T14:13:58Z</time>
      </trkpt>
      <trkpt lat="45.3777" lon="4.56591">
        <ele>1362</ele>
        <time>2010-12-02T14:14:10Z</time>
      </trkpt>
      <trkpt lat="45.37776" lon="4.56602">
        <ele>1363</ele>
        <time>2010-12-02T14:14:25Z</time>
      </trkpt>
      <trkpt lat="45.37783" lon="4.56611">
        <ele>1363</ele>
        <time>2010-12-02T14:14:37Z</time>
      </trkpt>
      <trkpt lat="45.37791" lon="4.56619">
        <ele>1364</ele>
        <time>2010-12-02T14:14:47Z</time>
      </trkpt>
      <trkpt lat="45.37799" lon="4.56626">
        <ele>1364</ele>
        <time>2010-12-02T14:14:58Z</time>
      </trkpt>
      <trkpt lat="45.37805" lon="4.56637">
        <ele>1365</ele>
        <time>2010-12-02T14:15:18Z</time>
      </trkpt>
      <trkpt lat="45.37813" lon="4.56645">
        <ele>1365</ele>
        <time>2010-12-02T14:15:31Z</time>
      </trkpt>
      <trkpt lat="45.37821" lon="4.56651">
        <ele>1365</ele>
        <time>2010-12-02T14:15:43Z</time>
      </trkpt>
      <trkpt lat="45.37827" lon="4.56661">
        <ele>1366</ele>
        <time>2010-12-02T14:15:56Z</time>
      </trkpt>
      <trkpt lat="45.37836" lon="4.56668">
        <ele>1368</ele>
        <time>2010-12-02T14:16:08Z</time>
      </trkpt>
      <trkpt lat="45.37845" lon="4.56674">
        <ele>1369</ele>
        <time>2010-12-02T14:16:21Z</time>
      </trkpt>
      <trkpt lat="45.37853" lon="4.56682">
        <ele>1370</ele>
        <time>2010-12-02T14:16:31Z</time>
      </trkpt>
      <trkpt lat="45.3786" lon="4.56692">
        <ele>1370</ele>
        <time>2010-12-02T14:16:44Z</time>
      </trkpt>
      <trkpt lat="45.37869" lon="4.56696">
        <ele>1371</ele>
        <time>2010-12-02T14:16:57Z</time>
      </trkpt>
      <trkpt lat="45.37876" lon="4.56706">
        <ele>1371</ele>
        <time>2010-12-02T14:17:12Z</time>
      </trkpt>
      <trkpt lat="45.37884" lon="4.56713">
        <ele>1372</ele>
        <time>2010-12-02T14:17:26Z</time>
      </trkpt>
      <trkpt lat="45.37893" lon="4.5672">
        <ele>1372</ele>
        <time>2010-12-02T14:17:39Z</time>
      </trkpt>
      <trkpt lat="45.37902" lon="4.56723">
        <ele>1372</ele>
        <time>2010-12-02T14:17:48Z</time>
      </trkpt>
      <trkpt lat="45.3791" lon="4.5673">
        <ele>1373</ele>
        <time>2010-12-02T14:17:55Z</time>
      </trkpt>
      <trkpt lat="45.37917" lon="4.56739">
        <ele>1375</ele>
        <time>2010-12-02T14:18:06Z</time>
      </trkpt>
      <trkpt lat="45.37926" lon="4.56742">
        <ele>1375</ele>
        <time>2010-12-02T14:18:15Z</time>
      </trkpt>
      <trkpt lat="45.37934" lon="4.56748">
        <ele>1375</ele>
        <time>2010-12-02T14:18:26Z</time>
      </trkpt>
      <trkpt lat="45.37942" lon="4.56755">
        <ele>1378</ele>
        <time>2010-12-02T14:18:39Z</time>
      </trkpt>
      <trkpt lat="45.37952" lon="4.56755">
        <ele>1378</ele>
        <time>2010-12-02T14:18:53Z</time>
      </trkpt>
      <trkpt lat="45.37962" lon="4.56756">
        <ele>1379</ele>
        <time>2010-12-02T14:19:07Z</time>
      </trkpt>
      <trkpt lat="45.37971" lon="4.56757">
        <ele>1379</ele>
        <time>2010-12-02T14:19:18Z</time>
      </trkpt>
      <trkpt lat="45.3798" lon="4.56764">
        <ele>1379</ele>
        <time>2010-12-02T14:19:32Z</time>
      </trkpt>
      <trkpt lat="45.3799" lon="4.56761">
        <ele>1379</ele>
        <time>2010-12-02T14:19:40Z</time>
      </trkpt>
      <trkpt lat="45.38" lon="4.5676">
        <ele>1379</ele>
        <time>2010-12-02T14:19:51Z</time>
      </trkpt>
      <trkpt lat="45.3801" lon="4.56763">
        <ele>1380</ele>
        <time>2010-12-02T14:20:02Z</time>
      </trkpt>
      <trkpt lat="45.38018" lon="4.56769">
        <ele>1380</ele>
        <time>2010-12-02T14:22:23Z</time>
      </trkpt>
      <trkpt lat="45.38027" lon="4.56775">
        <ele>1381</ele>
        <time>2010-12-02T14:22:34Z</time>
      </trkpt>
      <trkpt lat="45.38035" lon="4.56783">
        <ele>1381</ele>
        <time>2010-12-02T14:22:45Z</time>
      </trkpt>
      <trkpt lat="45.38043" lon="4.56791">
        <ele>1381</ele>
        <time>2010-12-02T14:22:56Z</time>
      </trkpt>
      <trkpt lat="45.38047" lon="4.56803">
        <ele>1382</ele>
        <time>2010-12-02T14:23:06Z</time>
      </trkpt>
      <trkpt lat="45.38048" lon="4.56818">
        <ele>1382</ele>
        <time>2010-12-02T14:23:17Z</time>
      </trkpt>
      <trkpt lat="45.38054" lon="4.56828">
        <ele>1382</ele>
        <time>2010-12-02T14:23:28Z</time>
      </trkpt>
      <trkpt lat="45.3806" lon="4.56841">
        <ele>1386</ele>
        <time>2010-12-02T14:23:40Z</time>
      </trkpt>
      <trkpt lat="45.38067" lon="4.5685">
        <ele>1386</ele>
        <time>2010-12-02T14:23:55Z</time>
      </trkpt>
      <trkpt lat="45.38073" lon="4.56861">
        <ele>1387</ele>
        <time>2010-12-02T14:24:06Z</time>
      </trkpt>
      <trkpt lat="45.38079" lon="4.56872">
        <ele>1387</ele>
        <time>2010-12-02T14:24:17Z</time>
      </trkpt>
      <trkpt lat="45.38088" lon="4.56879">
        <ele>1388</ele>
        <time>2010-12-02T14:24:27Z</time>
      </trkpt>
      <trkpt lat="45.38095" lon="4.56889">
        <ele>1389</ele>
        <time>2010-12-02T14:24:40Z</time>
      </trkpt>
      <trkpt lat="45.381" lon="4.569">
        <ele>1389</ele>
        <time>2010-12-02T14:24:59Z</time>
      </trkpt>
      <trkpt lat="45.38105" lon="4.56913">
        <ele>1390</ele>
        <time>2010-12-02T14:25:09Z</time>
      </trkpt>
      <trkpt lat="45.38108" lon="4.56925">
        <ele>1394</ele>
        <time>2010-12-02T14:25:22Z</time>
      </trkpt>
      <trkpt lat="45.38113" lon="4.56937">
        <ele>1394</ele>
        <time>2010-12-02T14:25:36Z</time>
      </trkpt>
      <trkpt lat="45.38117" lon="4.56949">
        <ele>1395</ele>
        <time>2010-12-02T14:25:49Z</time>
      </trkpt>
      <trkpt lat="45.38124" lon="4.5696">
        <ele>1395</ele>
        <time>2010-12-02T14:26:01Z</time>
      </trkpt>
      <trkpt lat="45.38131" lon="4.56969">
        <ele>1396</ele>
        <time>2010-12-02T14:26:14Z</time>
      </trkpt>
      <trkpt lat="45.38136" lon="4.5698">
        <ele>1396</ele>
        <time>2010-12-02T14:26:27Z</time>
      </trkpt>
      <trkpt lat="45.38141" lon="4.56993">
        <ele>1397</ele>
        <time>2010-12-02T14:26:40Z</time>
      </trkpt>
      <trkpt lat="45.38145" lon="4.57005">
        <ele>1400</ele>
        <time>2010-12-02T14:26:54Z</time>
      </trkpt>
      <trkpt lat="45.3815" lon="4.57018">
        <ele>1401</ele>
        <time>2010-12-02T14:27:06Z</time>
      </trkpt>
      <trkpt lat="45.38155" lon="4.57029">
        <ele>1401</ele>
        <time>2010-12-02T14:27:19Z</time>
      </trkpt>
      <trkpt lat="45.38161" lon="4.5704">
        <ele>1402</ele>
        <time>2010-12-02T14:27:33Z</time>
      </trkpt>
      <trkpt lat="45.38167" lon="4.5705">
        <ele>1404</ele>
        <time>2010-12-02T14:27:46Z</time>
      </trkpt>
      <trkpt lat="45.38174" lon="4.57059">
        <ele>1405</ele>
        <time>2010-12-02T14:28:00Z</time>
      </trkpt>
      <trkpt lat="45.38181" lon="4.57068">
        <ele>1405</ele>
        <time>2010-12-02T14:28:13Z</time>
      </trkpt>
      <trkpt lat="45.3819" lon="4.57075">
        <ele>1405</ele>
        <time>2010-12-02T14:28:25Z</time>
      </trkpt>
      <trkpt lat="45.38199" lon="4.57081">
        <ele>1406</ele>
        <time>2010-12-02T14:28:39Z</time>
      </trkpt>
      <trkpt lat="45.38208" lon="4.57085">
        <ele>1410</ele>
        <time>2010-12-02T14:28:54Z</time>
      </trkpt>
      <trkpt lat="45.38214" lon="4.57098">
        <ele>1411</ele>
        <time>2010-12-02T14:29:08Z</time>
      </trkpt>
      <trkpt lat="45.38218" lon="4.5711">
        <ele>1411</ele>
        <time>2010-12-02T14:29:21Z</time>
      </trkpt>
      <trkpt lat="45.38221" lon="4.57122">
        <ele>1412</ele>
        <time>2010-12-02T14:29:34Z</time>
      </trkpt>
      <trkpt lat="45.38224" lon="4.57135">
        <ele>1412</ele>
        <time>2010-12-02T14:29:48Z</time>
      </trkpt>
      <trkpt lat="45.38226" lon="4.57147">
        <ele>1413</ele>
        <time>2010-12-02T14:30:00Z</time>
      </trkpt>
      <trkpt lat="45.38229" lon="4.5716">
        <ele>1414</ele>
        <time>2010-12-02T14:30:14Z</time>
      </trkpt>
      <trkpt lat="45.38234" lon="4.57172">
        <ele>1417</ele>
        <time>2010-12-02T14:30:28Z</time>
      </trkpt>
      <trkpt lat="45.38233" lon="4.57185">
        <ele>1417</ele>
        <time>2010-12-02T14:30:56Z</time>
      </trkpt>
      <trkpt lat="45.38234" lon="4.57199">
        <ele>1418</ele>
        <time>2010-12-02T14:31:09Z</time>
      </trkpt>
      <trkpt lat="45.38235" lon="4.57212">
        <ele>1418</ele>
        <time>2010-12-02T14:31:23Z</time>
      </trkpt>
      <trkpt lat="45.38236" lon="4.57226">
        <ele>1419</ele>
        <time>2010-12-02T14:31:37Z</time>
      </trkpt>
      <trkpt lat="45.38243" lon="4.57237">
        <ele>1420</ele>
        <time>2010-12-02T14:31:50Z</time>
      </trkpt>
      <trkpt lat="45.38248" lon="4.57249">
        <ele>1422</ele>
        <time>2010-12-02T14:32:03Z</time>
      </trkpt>
      <trkpt lat="45.38252" lon="4.57261">
        <ele>1420</ele>
        <time>2010-12-02T14:32:16Z</time>
      </trkpt>
      <trkpt lat="45.38249" lon="4.57274">
        <ele>1420</ele>
        <time>2010-12-02T14:32:47Z</time>
      </trkpt>
      <trkpt lat="45.38251" lon="4.5726">
        <ele>1421</ele>
        <time>2010-12-02T14:38:08Z</time>
      </trkpt>
      <trkpt lat="45.38248" lon="4.57247">
        <ele>1421</ele>
        <time>2010-12-02T14:38:15Z</time>
      </trkpt>
      <trkpt lat="45.38242" lon="4.57236">
        <ele>1420</ele>
        <time>2010-12-02T14:38:22Z</time>
      </trkpt>
      <trkpt lat="45.38236" lon="4.57224">
        <ele>1419</ele>
        <time>2010-12-02T14:38:32Z</time>
      </trkpt>
      <trkpt lat="45.38235" lon="4.5721">
        <ele>1418</ele>
        <time>2010-12-02T14:38:46Z</time>
      </trkpt>
      <trkpt lat="45.38235" lon="4.57197">
        <ele>1418</ele>
        <time>2010-12-02T14:38:56Z</time>
      </trkpt>
      <trkpt lat="45.38232" lon="4.57183">
        <ele>1417</ele>
        <time>2010-12-02T14:39:06Z</time>
      </trkpt>
      <trkpt lat="45.38229" lon="4.5717">
        <ele>1417</ele>
        <time>2010-12-02T14:39:15Z</time>
      </trkpt>
      <trkpt lat="45.38229" lon="4.57156">
        <ele>1414</ele>
        <time>2010-12-02T14:39:24Z</time>
      </trkpt>
      <trkpt lat="45.38228" lon="4.57142">
        <ele>1413</ele>
        <time>2010-12-02T14:39:33Z</time>
      </trkpt>
      <trkpt lat="45.38223" lon="4.5713">
        <ele>1412</ele>
        <time>2010-12-02T14:39:42Z</time>
      </trkpt>
      <trkpt lat="45.3822" lon="4.57116">
        <ele>1411</ele>
        <time>2010-12-02T14:39:49Z</time>
      </trkpt>
      <trkpt lat="45.38217" lon="4.57103">
        <ele>1411</ele>
        <time>2010-12-02T14:39:56Z</time>
      </trkpt>
      <trkpt lat="45.38212" lon="4.57092">
        <ele>1411</ele>
        <time>2010-12-02T14:40:03Z</time>
      </trkpt>
      <trkpt lat="45.38205" lon="4.57084">
        <ele>1410</ele>
        <time>2010-12-02T14:40:11Z</time>
      </trkpt>
      <trkpt lat="45.38195" lon="4.57077">
        <ele>1405</ele>
        <time>2010-12-02T14:40:20Z</time>
      </trkpt>
      <trkpt lat="45.38186" lon="4.57069">
        <ele>1405</ele>
        <time>2010-12-02T14:40:30Z</time>
      </trkpt>
      <trkpt lat="45.38178" lon="4.57062">
        <ele>1405</ele>
        <time>2010-12-02T14:40:38Z</time>
      </trkpt>
      <trkpt lat="45.38171" lon="4.57053">
        <ele>1405</ele>
        <time>2010-12-02T14:40:45Z</time>
      </trkpt>
      <trkpt lat="45.38164" lon="4.57041">
        <ele>1402</ele>
        <time>2010-12-02T14:40:52Z</time>
      </trkpt>
      <trkpt lat="45.3816" lon="4.5703">
        <ele>1401</ele>
        <time>2010-12-02T14:40:59Z</time>
      </trkpt>
      <trkpt lat="45.38154" lon="4.5702">
        <ele>1401</ele>
        <time>2010-12-02T14:41:07Z</time>
      </trkpt>
      <trkpt lat="45.38148" lon="4.57009">
        <ele>1400</ele>
        <time>2010-12-02T14:41:15Z</time>
      </trkpt>
      <trkpt lat="45.38139" lon="4.56999">
        <ele>1397</ele>
        <time>2010-12-02T14:41:22Z</time>
      </trkpt>
      <trkpt lat="45.38134" lon="4.56987">
        <ele>1396</ele>
        <time>2010-12-02T14:41:31Z</time>
      </trkpt>
      <trkpt lat="45.38126" lon="4.56976">
        <ele>1396</ele>
        <time>2010-12-02T14:41:41Z</time>
      </trkpt>
      <trkpt lat="45.38121" lon="4.56964">
        <ele>1395</ele>
        <time>2010-12-02T14:41:50Z</time>
      </trkpt>
      <trkpt lat="45.38118" lon="4.56951">
        <ele>1395</ele>
        <time>2010-12-02T14:41:58Z</time>
      </trkpt>
      <trkpt lat="45.38112" lon="4.56941">
        <ele>1394</ele>
        <time>2010-12-02T14:42:05Z</time>
      </trkpt>
      <trkpt lat="45.38106" lon="4.56929">
        <ele>1394</ele>
        <time>2010-12-02T14:42:14Z</time>
      </trkpt>
      <trkpt lat="45.38099" lon="4.56918">
        <ele>1393</ele>
        <time>2010-12-02T14:42:23Z</time>
      </trkpt>
      <trkpt lat="45.38097" lon="4.56906">
        <ele>1390</ele>
        <time>2010-12-02T14:42:32Z</time>
      </trkpt>
      <trkpt lat="45.38094" lon="4.56889">
        <ele>1389</ele>
        <time>2010-12-02T14:42:45Z</time>
      </trkpt>
      <trkpt lat="45.38089" lon="4.56878">
        <ele>1388</ele>
        <time>2010-12-02T14:42:54Z</time>
      </trkpt>
      <trkpt lat="45.38083" lon="4.56868">
        <ele>1387</ele>
        <time>2010-12-02T14:43:04Z</time>
      </trkpt>
      <trkpt lat="45.38076" lon="4.56857">
        <ele>1386</ele>
        <time>2010-12-02T14:43:12Z</time>
      </trkpt>
      <trkpt lat="45.38071" lon="4.56845">
        <ele>1386</ele>
        <time>2010-12-02T14:43:22Z</time>
      </trkpt>
      <trkpt lat="45.38065" lon="4.56834">
        <ele>1386</ele>
        <time>2010-12-02T14:43:30Z</time>
      </trkpt>
      <trkpt lat="45.38056" lon="4.56825">
        <ele>1382</ele>
        <time>2010-12-02T14:43:40Z</time>
      </trkpt>
      <trkpt lat="45.38051" lon="4.56813">
        <ele>1382</ele>
        <time>2010-12-02T14:43:51Z</time>
      </trkpt>
      <trkpt lat="45.38048" lon="4.56801">
        <ele>1382</ele>
        <time>2010-12-02T14:44:01Z</time>
      </trkpt>
      <trkpt lat="45.38044" lon="4.56789">
        <ele>1381</ele>
        <time>2010-12-02T14:44:11Z</time>
      </trkpt>
      <trkpt lat="45.38037" lon="4.5678">
        <ele>1381</ele>
        <time>2010-12-02T14:44:23Z</time>
      </trkpt>
      <trkpt lat="45.38029" lon="4.5677">
        <ele>1380</ele>
        <time>2010-12-02T14:44:34Z</time>
      </trkpt>
      <trkpt lat="45.38019" lon="4.56761">
        <ele>1380</ele>
        <time>2010-12-02T14:44:42Z</time>
      </trkpt>
      <trkpt lat="45.3801" lon="4.56757">
        <ele>1379</ele>
        <time>2010-12-02T14:45:05Z</time>
      </trkpt>
      <trkpt lat="45.38" lon="4.56756">
        <ele>1379</ele>
        <time>2010-12-02T14:45:17Z</time>
      </trkpt>
      <trkpt lat="45.3799" lon="4.56756">
        <ele>1379</ele>
        <time>2010-12-02T14:45:27Z</time>
      </trkpt>
      <trkpt lat="45.3798" lon="4.56757">
        <ele>1379</ele>
        <time>2010-12-02T14:45:35Z</time>
      </trkpt>
      <trkpt lat="45.37971" lon="4.56755">
        <ele>1379</ele>
        <time>2010-12-02T14:45:45Z</time>
      </trkpt>
      <trkpt lat="45.3796" lon="4.56752">
        <ele>1379</ele>
        <time>2010-12-02T14:45:56Z</time>
      </trkpt>
      <trkpt lat="45.3795" lon="4.5675">
        <ele>1378</ele>
        <time>2010-12-02T14:46:04Z</time>
      </trkpt>
      <trkpt lat="45.3794" lon="4.56749">
        <ele>1375</ele>
        <time>2010-12-02T14:46:12Z</time>
      </trkpt>
      <trkpt lat="45.37931" lon="4.56745">
        <ele>1375</ele>
        <time>2010-12-02T14:46:22Z</time>
      </trkpt>
      <trkpt lat="45.37923" lon="4.56737">
        <ele>1375</ele>
        <time>2010-12-02T14:46:29Z</time>
      </trkpt>
      <trkpt lat="45.37917" lon="4.56727">
        <ele>1374</ele>
        <time>2010-12-02T14:46:34Z</time>
      </trkpt>
      <trkpt lat="45.37907" lon="4.56726">
        <ele>1373</ele>
        <time>2010-12-02T14:46:43Z</time>
      </trkpt>
      <trkpt lat="45.37896" lon="4.56723">
        <ele>1372</ele>
        <time>2010-12-02T14:46:49Z</time>
      </trkpt>
      <trkpt lat="45.3789" lon="4.56713">
        <ele>1372</ele>
        <time>2010-12-02T14:46:58Z</time>
      </trkpt>
      <trkpt lat="45.37884" lon="4.56704">
        <ele>1371</ele>
        <time>2010-12-02T14:47:06Z</time>
      </trkpt>
      <trkpt lat="45.37876" lon="4.56694">
        <ele>1371</ele>
        <time>2010-12-02T14:47:17Z</time>
      </trkpt>
      <trkpt lat="45.37866" lon="4.56688">
        <ele>1370</ele>
        <time>2010-12-02T14:47:23Z</time>
      </trkpt>
      <trkpt lat="45.37855" lon="4.5668">
        <ele>1370</ele>
        <time>2010-12-02T14:47:33Z</time>
      </trkpt>
      <trkpt lat="45.37846" lon="4.56677">
        <ele>1369</ele>
        <time>2010-12-02T14:47:40Z</time>
      </trkpt>
      <trkpt lat="45.37841" lon="4.56665">
        <ele>1367</ele>
        <time>2010-12-02T14:47:48Z</time>
      </trkpt>
      <trkpt lat="45.37832" lon="4.56666">
        <ele>1367</ele>
        <time>2010-12-02T14:47:55Z</time>
      </trkpt>
      <trkpt lat="45.37826" lon="4.56656">
        <ele>1366</ele>
        <time>2010-12-02T14:48:03Z</time>
      </trkpt>
      <trkpt lat="45.37821" lon="4.56643">
        <ele>1365</ele>
        <time>2010-12-02T14:48:10Z</time>
      </trkpt>
      <trkpt lat="45.37813" lon="4.56635">
        <ele>1365</ele>
        <time>2010-12-02T14:48:17Z</time>
      </trkpt>
      <trkpt lat="45.37803" lon="4.56631">
        <ele>1364</ele>
        <time>2010-12-02T14:48:25Z</time>
      </trkpt>
      <trkpt lat="45.37798" lon="4.56619">
        <ele>1364</ele>
        <time>2010-12-02T14:48:31Z</time>
      </trkpt>
      <trkpt lat="45.37791" lon="4.56611">
        <ele>1363</ele>
        <time>2010-12-02T14:48:40Z</time>
      </trkpt>
      <trkpt lat="45.37784" lon="4.56601">
        <ele>1363</ele>
        <time>2010-12-02T14:48:47Z</time>
      </trkpt>
      <trkpt lat="45.37778" lon="4.5659">
        <ele>1362</ele>
        <time>2010-12-02T14:48:59Z</time>
      </trkpt>
      <trkpt lat="45.37771" lon="4.56578">
        <ele>1357</ele>
        <time>2010-12-02T14:49:09Z</time>
      </trkpt>
      <trkpt lat="45.37764" lon="4.56568">
        <ele>1357</ele>
        <time>2010-12-02T14:49:18Z</time>
      </trkpt>
      <trkpt lat="45.37752" lon="4.56562">
        <ele>1356</ele>
        <time>2010-12-02T14:49:30Z</time>
      </trkpt>
      <trkpt lat="45.37745" lon="4.5655">
        <ele>1355</ele>
        <time>2010-12-02T14:49:37Z</time>
      </trkpt>
      <trkpt lat="45.37736" lon="4.56543">
        <ele>1354</ele>
        <time>2010-12-02T14:49:44Z</time>
      </trkpt>
      <trkpt lat="45.37725" lon="4.56532">
        <ele>1353</ele>
        <time>2010-12-02T14:49:51Z</time>
      </trkpt>
      <trkpt lat="45.37719" lon="4.5652">
        <ele>1353</ele>
        <time>2010-12-02T14:49:57Z</time>
      </trkpt>
      <trkpt lat="45.3771" lon="4.56514">
        <ele>1352</ele>
        <time>2010-12-02T14:50:33Z</time>
      </trkpt>
      <trkpt lat="45.37708" lon="4.56501">
        <ele>1352</ele>
        <time>2010-12-02T14:51:12Z</time>
      </trkpt>
      <trkpt lat="45.37699" lon="4.56506">
        <ele>1352</ele>
        <time>2010-12-02T14:51:55Z</time>
      </trkpt>
      <trkpt lat="45.3769" lon="4.56501">
        <ele>1352</ele>
        <time>2010-12-02T14:52:01Z</time>
      </trkpt>
      <trkpt lat="45.3769" lon="4.56488">
        <ele>1346</ele>
        <time>2010-12-02T14:52:09Z</time>
      </trkpt>
      <trkpt lat="45.37686" lon="4.56476">
        <ele>1345</ele>
        <time>2010-12-02T14:52:19Z</time>
      </trkpt>
      <trkpt lat="45.37679" lon="4.56465">
        <ele>1345</ele>
        <time>2010-12-02T14:52:30Z</time>
      </trkpt>
      <trkpt lat="45.37673" lon="4.56456">
        <ele>1344</ele>
        <time>2010-12-02T14:52:43Z</time>
      </trkpt>
      <trkpt lat="45.37664" lon="4.56447">
        <ele>1341</ele>
        <time>2010-12-02T14:52:55Z</time>
      </trkpt>
      <trkpt lat="45.37657" lon="4.56438">
        <ele>1341</ele>
        <time>2010-12-02T14:53:03Z</time>
      </trkpt>
      <trkpt lat="45.37653" lon="4.56424">
        <ele>1340</ele>
        <time>2010-12-02T14:53:11Z</time>
      </trkpt>
      <trkpt lat="45.37646" lon="4.56415">
        <ele>1335</ele>
        <time>2010-12-02T14:53:25Z</time>
      </trkpt>
      <trkpt lat="45.37636" lon="4.56409">
        <ele>1334</ele>
        <time>2010-12-02T14:53:36Z</time>
      </trkpt>
      <trkpt lat="45.37626" lon="4.56404">
        <ele>1334</ele>
        <time>2010-12-02T14:53:48Z</time>
      </trkpt>
      <trkpt lat="45.37617" lon="4.56397">
        <ele>1333</ele>
        <time>2010-12-02T14:53:55Z</time>
      </trkpt>
      <trkpt lat="45.37608" lon="4.56403">
        <ele>1333</ele>
        <time>2010-12-02T14:54:04Z</time>
      </trkpt>
      <trkpt lat="45.37599" lon="4.56399">
        <ele>1333</ele>
        <time>2010-12-02T14:54:12Z</time>
      </trkpt>
      <trkpt lat="45.37589" lon="4.56399">
        <ele>1333</ele>
        <time>2010-12-02T14:54:22Z</time>
      </trkpt>
      <trkpt lat="45.37581" lon="4.56391">
        <ele>1331</ele>
        <time>2010-12-02T14:54:32Z</time>
      </trkpt>
      <trkpt lat="45.3757" lon="4.56386">
        <ele>1330</ele>
        <time>2010-12-02T14:54:45Z</time>
      </trkpt>
      <trkpt lat="45.3756" lon="4.56386">
        <ele>1330</ele>
        <time>2010-12-02T14:54:54Z</time>
      </trkpt>
      <trkpt lat="45.37553" lon="4.56377">
        <ele>1329</ele>
        <time>2010-12-02T14:55:00Z</time>
      </trkpt>
      <trkpt lat="45.37543" lon="4.56377">
        <ele>1329</ele>
        <time>2010-12-02T14:55:15Z</time>
      </trkpt>
      <trkpt lat="45.37532" lon="4.56377">
        <ele>1329</ele>
        <time>2010-12-02T14:55:34Z</time>
      </trkpt>
      <trkpt lat="45.37521" lon="4.56376">
        <ele>1329</ele>
        <time>2010-12-02T14:55:39Z</time>
      </trkpt>
      <trkpt lat="45.3751" lon="4.56373">
        <ele>1329</ele>
        <time>2010-12-02T14:55:46Z</time>
      </trkpt>
      <trkpt lat="45.37505" lon="4.56361">
        <ele>1328</ele>
        <time>2010-12-02T14:55:53Z</time>
      </trkpt>
      <trkpt lat="45.37496" lon="4.56355">
        <ele>1323</ele>
        <time>2010-12-02T14:56:04Z</time>
      </trkpt>
      <trkpt lat="45.3749" lon="4.56344">
        <ele>1323</ele>
        <time>2010-12-02T14:56:15Z</time>
      </trkpt>
      <trkpt lat="45.37481" lon="4.5634">
        <ele>1323</ele>
        <time>2010-12-02T14:56:24Z</time>
      </trkpt>
      <trkpt lat="45.37474" lon="4.5633">
        <ele>1319</ele>
        <time>2010-12-02T14:56:34Z</time>
      </trkpt>
      <trkpt lat="45.37467" lon="4.56322">
        <ele>1317</ele>
        <time>2010-12-02T14:56:43Z</time>
      </trkpt>
      <trkpt lat="45.37457" lon="4.56315">
        <ele>1316</ele>
        <time>2010-12-02T14:56:54Z</time>
      </trkpt>
      <trkpt lat="45.37449" lon="4.56309">
        <ele>1316</ele>
        <time>2010-12-02T14:57:05Z</time>
      </trkpt>
      <trkpt lat="45.37443" lon="4.56299">
        <ele>1315</ele>
        <time>2010-12-02T14:57:15Z</time>
      </trkpt>
      <trkpt lat="45.37434" lon="4.56292">
        <ele>1314</ele>
        <time>2010-12-02T14:57:26Z</time>
      </trkpt>
      <trkpt lat="45.37426" lon="4.56284">
        <ele>1314</ele>
        <time>2010-12-02T14:57:35Z</time>
      </trkpt>
      <trkpt lat="45.37417" lon="4.56279">
        <ele>1308</ele>
        <time>2010-12-02T14:57:47Z</time>
      </trkpt>
      <trkpt lat="45.37408" lon="4.56271">
        <ele>1308</ele>
        <time>2010-12-02T14:57:57Z</time>
      </trkpt>
      <trkpt lat="45.37403" lon="4.5626">
        <ele>1308</ele>
        <time>2010-12-02T14:58:08Z</time>
      </trkpt>
      <trkpt lat="45.37393" lon="4.56262">
        <ele>1307</ele>
        <time>2010-12-02T14:58:17Z</time>
      </trkpt>
      <trkpt lat="45.37385" lon="4.56254">
        <ele>1306</ele>
        <time>2010-12-02T14:58:25Z</time>
      </trkpt>
      <trkpt lat="45.37378" lon="4.56245">
        <ele>1303</ele>
        <time>2010-12-02T14:58:37Z</time>
      </trkpt>
      <trkpt lat="45.37368" lon="4.56236">
        <ele>1302</ele>
        <time>2010-12-02T14:58:49Z</time>
      </trkpt>
      <trkpt lat="45.37358" lon="4.56232">
        <ele>1302</ele>
        <time>2010-12-02T14:59:05Z</time>
      </trkpt>
      <trkpt lat="45.37351" lon="4.56223">
        <ele>1301</ele>
        <time>2010-12-02T14:59:25Z</time>
      </trkpt>
      <trkpt lat="45.37344" lon="4.56214">
        <ele>1301</ele>
        <time>2010-12-02T14:59:38Z</time>
      </trkpt>
      <trkpt lat="45.3734" lon="4.56202">
        <ele>1301</ele>
        <time>2010-12-02T14:59:58Z</time>
      </trkpt>
      <trkpt lat="45.37332" lon="4.56195">
        <ele>1299</ele>
        <time>2010-12-02T15:00:08Z</time>
      </trkpt>
      <trkpt lat="45.37326" lon="4.56183">
        <ele>1299</ele>
        <time>2010-12-02T15:00:15Z</time>
      </trkpt>
      <trkpt lat="45.37319" lon="4.56172">
        <ele>1299</ele>
        <time>2010-12-02T15:00:28Z</time>
      </trkpt>
      <trkpt lat="45.37311" lon="4.56163">
        <ele>1300</ele>
        <time>2010-12-02T15:00:37Z</time>
      </trkpt>
      <trkpt lat="45.37303" lon="4.56154">
        <ele>1300</ele>
        <time>2010-12-02T15:00:46Z</time>
      </trkpt>
      <trkpt lat="45.37297" lon="4.56144">
        <ele>1300</ele>
        <time>2010-12-02T15:01:00Z</time>
      </trkpt>
      <trkpt lat="45.37291" lon="4.56131">
        <ele>1300</ele>
        <time>2010-12-02T15:01:14Z</time>
      </trkpt>
      <trkpt lat="45.37282" lon="4.56122">
        <ele>1300</ele>
        <time>2010-12-02T15:01:20Z</time>
      </trkpt>
      <trkpt lat="45.37275" lon="4.56112">
        <ele>1301</ele>
        <time>2010-12-02T15:01:34Z</time>
      </trkpt>
      <trkpt lat="45.3727" lon="4.56101">
        <ele>1301</ele>
        <time>2010-12-02T15:01:47Z</time>
      </trkpt>
      <trkpt lat="45.37266" lon="4.56085">
        <ele>1302</ele>
        <time>2010-12-02T15:01:59Z</time>
      </trkpt>
      <trkpt lat="45.37259" lon="4.56076">
        <ele>1302</ele>
        <time>2010-12-02T15:02:07Z</time>
      </trkpt>
      <trkpt lat="45.37251" lon="4.56065">
        <ele>1301</ele>
        <time>2010-12-02T15:02:19Z</time>
      </trkpt>
      <trkpt lat="45.37245" lon="4.56055">
        <ele>1306</ele>
        <time>2010-12-02T15:02:29Z</time>
      </trkpt>
      <trkpt lat="45.37242" lon="4.56042">
        <ele>1306</ele>
        <time>2010-12-02T15:02:43Z</time>
      </trkpt>
      <trkpt lat="45.37235" lon="4.56032">
        <ele>1306</ele>
        <time>2010-12-02T15:03:31Z</time>
      </trkpt>
      <trkpt lat="45.37229" lon="4.56021">
        <ele>1306</ele>
        <time>2010-12-02T15:03:45Z</time>
      </trkpt>
      <trkpt lat="45.37229" lon="4.56007">
        <ele>1306</ele>
        <time>2010-12-02T15:03:57Z</time>
      </trkpt>
      <trkpt lat="45.3722" lon="4.56001">
        <ele>1306</ele>
        <time>2010-12-02T15:04:08Z</time>
      </trkpt>
      <trkpt lat="45.37215" lon="4.55989">
        <ele>1306</ele>
        <time>2010-12-02T15:04:17Z</time>
      </trkpt>
      <trkpt lat="45.37215" lon="4.55975">
        <ele>1306</ele>
        <time>2010-12-02T15:04:30Z</time>
      </trkpt>
      <trkpt lat="45.37211" lon="4.55962">
        <ele>1306</ele>
        <time>2010-12-02T15:04:44Z</time>
      </trkpt>
      <trkpt lat="45.37211" lon="4.55948">
        <ele>1306</ele>
        <time>2010-12-02T15:04:53Z</time>
      </trkpt>
      <trkpt lat="45.37215" lon="4.55935">
        <ele>1305</ele>
        <time>2010-12-02T15:05:01Z</time>
      </trkpt>
      <trkpt lat="45.37215" lon="4.55921">
        <ele>1305</ele>
        <time>2010-12-02T15:05:13Z</time>
      </trkpt>
      <trkpt lat="45.37209" lon="4.5591">
        <ele>1302</ele>
        <time>2010-12-02T15:05:22Z</time>
      </trkpt>
      <trkpt lat="45.37209" lon="4.55896">
        <ele>1301</ele>
        <time>2010-12-02T15:05:33Z</time>
      </trkpt>
      <trkpt lat="45.37209" lon="4.55882">
        <ele>1301</ele>
        <time>2010-12-02T15:05:44Z</time>
      </trkpt>
      <trkpt lat="45.3721" lon="4.55868">
        <ele>1300</ele>
        <time>2010-12-02T15:05:53Z</time>
      </trkpt>
      <trkpt lat="45.37206" lon="4.55856">
        <ele>1300</ele>
        <time>2010-12-02T15:06:03Z</time>
      </trkpt>
      <trkpt lat="45.37201" lon="4.55845">
        <ele>1300</ele>
        <time>2010-12-02T15:06:15Z</time>
      </trkpt>
      <trkpt lat="45.37196" lon="4.55833">
        <ele>1295</ele>
        <time>2010-12-02T15:06:26Z</time>
      </trkpt>
      <trkpt lat="45.37193" lon="4.5582">
        <ele>1295</ele>
        <time>2010-12-02T15:06:38Z</time>
      </trkpt>
      <trkpt lat="45.37187" lon="4.55809">
        <ele>1294</ele>
        <time>2010-12-02T15:06:53Z</time>
      </trkpt>
      <trkpt lat="45.37178" lon="4.55802">
        <ele>1294</ele>
        <time>2010-12-02T15:07:08Z</time>
      </trkpt>
      <trkpt lat="45.37173" lon="4.5579">
        <ele>1293</ele>
        <time>2010-12-02T15:07:26Z</time>
      </trkpt>
      <trkpt lat="45.37165" lon="4.55781">
        <ele>1302</ele>
        <time>2010-12-02T15:07:38Z</time>
      </trkpt>
      <trkpt lat="45.3716" lon="4.55768">
        <ele>1300</ele>
        <time>2010-12-02T15:07:51Z</time>
      </trkpt>
      <trkpt lat="45.37155" lon="4.55756">
        <ele>1299</ele>
        <time>2010-12-02T15:08:05Z</time>
      </trkpt>
      <trkpt lat="45.37148" lon="4.55741">
        <ele>1298</ele>
        <time>2010-12-02T15:08:18Z</time>
      </trkpt>
      <trkpt lat="45.37147" lon="4.55728">
        <ele>1298</ele>
        <time>2010-12-02T15:08:29Z</time>
      </trkpt>
      <trkpt lat="45.37142" lon="4.55715">
        <ele>1299</ele>
        <time>2010-12-02T15:08:41Z</time>
      </trkpt>
      <trkpt lat="45.37135" lon="4.55705">
        <ele>1299</ele>
        <time>2010-12-02T15:08:52Z</time>
      </trkpt>
      <trkpt lat="45.37131" lon="4.55692">
        <ele>1299</ele>
        <time>2010-12-02T15:08:59Z</time>
      </trkpt>
      <trkpt lat="45.37134" lon="4.55679">
        <ele>1299</ele>
        <time>2010-12-02T15:09:11Z</time>
      </trkpt>
      <trkpt lat="45.37128" lon="4.55669">
        <ele>1299</ele>
        <time>2010-12-02T15:09:19Z</time>
      </trkpt>
      <trkpt lat="45.3712" lon="4.55661">
        <ele>1299</ele>
        <time>2010-12-02T15:09:26Z</time>
      </trkpt>
      <trkpt lat="45.37119" lon="4.55647">
        <ele>1299</ele>
        <time>2010-12-02T15:09:39Z</time>
      </trkpt>
      <trkpt lat="45.37118" lon="4.55634">
        <ele>1299</ele>
        <time>2010-12-02T15:09:50Z</time>
      </trkpt>
      <trkpt lat="45.37121" lon="4.5562">
        <ele>1299</ele>
        <time>2010-12-02T15:10:00Z</time>
      </trkpt>
      <trkpt lat="45.37113" lon="4.5561">
        <ele>1300</ele>
        <time>2010-12-02T15:10:09Z</time>
      </trkpt>
      <trkpt lat="45.37105" lon="4.55601">
        <ele>1301</ele>
        <time>2010-12-02T15:10:23Z</time>
      </trkpt>
      <trkpt lat="45.37104" lon="4.55588">
        <ele>1302</ele>
        <time>2010-12-02T15:10:37Z</time>
      </trkpt>
      <trkpt lat="45.37107" lon="4.55575">
        <ele>1301</ele>
        <time>2010-12-02T15:10:47Z</time>
      </trkpt>
      <trkpt lat="45.37114" lon="4.55565">
        <ele>1299</ele>
        <time>2010-12-02T15:11:12Z</time>
      </trkpt>
      <trkpt lat="45.3711" lon="4.5555">
        <ele>1300</ele>
        <time>2010-12-02T15:11:35Z</time>
      </trkpt>
      <trkpt lat="45.37111" lon="4.55537">
        <ele>1300</ele>
        <time>2010-12-02T15:11:57Z</time>
      </trkpt>
      <trkpt lat="45.37117" lon="4.55526">
        <ele>1299</ele>
        <time>2010-12-02T15:12:01Z</time>
      </trkpt>
      <trkpt lat="45.37113" lon="4.55511">
        <ele>1300</ele>
        <time>2010-12-02T15:12:20Z</time>
      </trkpt>
      <trkpt lat="45.3712" lon="4.55499">
        <ele>1301</ele>
        <time>2010-12-02T15:12:41Z</time>
      </trkpt>
      <trkpt lat="45.37125" lon="4.55486">
        <ele>1300</ele>
        <time>2010-12-02T15:12:52Z</time>
      </trkpt>
      <trkpt lat="45.3713" lon="4.55475">
        <ele>1299</ele>
        <time>2010-12-02T15:13:08Z</time>
      </trkpt>
      <trkpt lat="45.37138" lon="4.55467">
        <ele>1298</ele>
        <time>2010-12-02T15:13:14Z</time>
      </trkpt>
      <trkpt lat="45.37138" lon="4.55452">
        <ele>1299</ele>
        <time>2010-12-02T15:13:33Z</time>
      </trkpt>
      <trkpt lat="45.37139" lon="4.55438">
        <ele>1298</ele>
        <time>2010-12-02T15:13:42Z</time>
      </trkpt>
      <trkpt lat="45.37144" lon="4.55426">
        <ele>1297</ele>
        <time>2010-12-02T15:14:00Z</time>
      </trkpt>
      <trkpt lat="45.37149" lon="4.55414">
        <ele>1297</ele>
        <time>2010-12-02T15:14:09Z</time>
      </trkpt>
      <trkpt lat="45.37149" lon="4.55401">
        <ele>1298</ele>
        <time>2010-12-02T15:14:16Z</time>
      </trkpt>
      <trkpt lat="45.37154" lon="4.55389">
        <ele>1298</ele>
        <time>2010-12-02T15:14:29Z</time>
      </trkpt>
      <trkpt lat="45.37153" lon="4.55376">
        <ele>1299</ele>
        <time>2010-12-02T15:14:37Z</time>
      </trkpt>
      <trkpt lat="45.37153" lon="4.55362">
        <ele>1299</ele>
        <time>2010-12-02T15:14:46Z</time>
      </trkpt>
      <trkpt lat="45.37155" lon="4.5535">
        <ele>1298</ele>
        <time>2010-12-02T15:14:59Z</time>
      </trkpt>
      <trkpt lat="45.37149" lon="4.55338">
        <ele>1298</ele>
        <time>2010-12-02T15:15:17Z</time>
      </trkpt>
      <trkpt lat="45.37149" lon="4.55324">
        <ele>1298</ele>
        <time>2010-12-02T15:15:27Z</time>
      </trkpt>
      <trkpt lat="45.37149" lon="4.5531">
        <ele>1299</ele>
        <time>2010-12-02T15:15:35Z</time>
      </trkpt>
      <trkpt lat="45.37146" lon="4.55298">
        <ele>1299</ele>
        <time>2010-12-02T15:15:46Z</time>
      </trkpt>
      <trkpt lat="45.37147" lon="4.55284">
        <ele>1299</ele>
        <time>2010-12-02T15:15:55Z</time>
      </trkpt>
      <trkpt lat="45.37147" lon="4.55268">
        <ele>1298</ele>
        <time>2010-12-02T15:16:12Z</time>
      </trkpt>
      <trkpt lat="45.37155" lon="4.5526">
        <ele>1295</ele>
        <time>2010-12-02T15:16:23Z</time>
      </trkpt>
      <trkpt lat="45.37155" lon="4.55246">
        <ele>1294</ele>
        <time>2010-12-02T15:16:31Z</time>
      </trkpt>
      <trkpt lat="45.3716" lon="4.55235">
        <ele>1295</ele>
        <time>2010-12-02T15:16:44Z</time>
      </trkpt>
      <trkpt lat="45.37163" lon="4.55221">
        <ele>1297</ele>
        <time>2010-12-02T15:17:04Z</time>
      </trkpt>
      <trkpt lat="45.37161" lon="4.55205">
        <ele>1298</ele>
        <time>2010-12-02T15:17:12Z</time>
      </trkpt>
      <trkpt lat="45.37161" lon="4.55191">
        <ele>1298</ele>
        <time>2010-12-02T15:17:25Z</time>
      </trkpt>
      <trkpt lat="45.37162" lon="4.55177">
        <ele>1295</ele>
        <time>2010-12-02T15:17:42Z</time>
      </trkpt>
      <trkpt lat="45.37166" lon="4.55166">
        <ele>1292</ele>
        <time>2010-12-02T15:17:52Z</time>
      </trkpt>
      <trkpt lat="45.3717" lon="4.55153">
        <ele>1286</ele>
        <time>2010-12-02T15:17:59Z</time>
      </trkpt>
      <trkpt lat="45.37174" lon="4.5514">
        <ele>1284</ele>
        <time>2010-12-02T15:18:10Z</time>
      </trkpt>
      <trkpt lat="45.37173" lon="4.55126">
        <ele>1284</ele>
        <time>2010-12-02T15:18:25Z</time>
      </trkpt>
      <trkpt lat="45.37173" lon="4.55113">
        <ele>1285</ele>
        <time>2010-12-02T15:18:42Z</time>
      </trkpt>
      <trkpt lat="45.37179" lon="4.551">
        <ele>1286</ele>
        <time>2010-12-02T15:18:54Z</time>
      </trkpt>
      <trkpt lat="45.37175" lon="4.55085">
        <ele>1290</ele>
        <time>2010-12-02T15:19:08Z</time>
      </trkpt>
      <trkpt lat="45.37179" lon="4.55071">
        <ele>1289</ele>
        <time>2010-12-02T15:19:14Z</time>
      </trkpt>
      <trkpt lat="45.37185" lon="4.55059">
        <ele>1287</ele>
        <time>2010-12-02T15:19:26Z</time>
      </trkpt>
      <trkpt lat="45.37187" lon="4.55046">
        <ele>1287</ele>
        <time>2010-12-02T15:19:38Z</time>
      </trkpt>
      <trkpt lat="45.37194" lon="4.55037">
        <ele>1286</ele>
        <time>2010-12-02T15:19:44Z</time>
      </trkpt>
      <trkpt lat="45.37194" lon="4.55024">
        <ele>1287</ele>
        <time>2010-12-02T15:19:51Z</time>
      </trkpt>
      <trkpt lat="45.37204" lon="4.55015">
        <ele>1286</ele>
        <time>2010-12-02T15:19:59Z</time>
      </trkpt>
      <trkpt lat="45.37198" lon="4.55002">
        <ele>1287</ele>
        <time>2010-12-02T15:20:07Z</time>
      </trkpt>
      <trkpt lat="45.37204" lon="4.5499">
        <ele>1288</ele>
        <time>2010-12-02T15:20:27Z</time>
      </trkpt>
      <trkpt lat="45.37206" lon="4.54977">
        <ele>1287</ele>
        <time>2010-12-02T15:20:33Z</time>
      </trkpt>
      <trkpt lat="45.37208" lon="4.54964">
        <ele>1287</ele>
        <time>2010-12-02T15:20:48Z</time>
      </trkpt>
      <trkpt lat="45.37215" lon="4.54953">
        <ele>1286</ele>
        <time>2010-12-02T15:20:57Z</time>
      </trkpt>
      <trkpt lat="45.37217" lon="4.54938">
        <ele>1286</ele>
        <time>2010-12-02T15:21:03Z</time>
      </trkpt>
      <trkpt lat="45.37216" lon="4.54925">
        <ele>1286</ele>
        <time>2010-12-02T15:21:10Z</time>
      </trkpt>
      <trkpt lat="45.37215" lon="4.54911">
        <ele>1285</ele>
        <time>2010-12-02T15:21:21Z</time>
      </trkpt>
      <trkpt lat="45.3722" lon="4.54894">
        <ele>1285</ele>
        <time>2010-12-02T15:21:34Z</time>
      </trkpt>
      <trkpt lat="45.37217" lon="4.54882">
        <ele>1285</ele>
        <time>2010-12-02T15:21:39Z</time>
      </trkpt>
      <trkpt lat="45.37217" lon="4.54866">
        <ele>1285</ele>
        <time>2010-12-02T15:21:48Z</time>
      </trkpt>
      <trkpt lat="45.37208" lon="4.54861">
        <ele>1285</ele>
        <time>2010-12-02T15:21:58Z</time>
      </trkpt>
      <trkpt lat="45.37203" lon="4.54847">
        <ele>1285</ele>
        <time>2010-12-02T15:22:12Z</time>
      </trkpt>
      <trkpt lat="45.37204" lon="4.54832">
        <ele>1282</ele>
        <time>2010-12-02T15:22:16Z</time>
      </trkpt>
      <trkpt lat="45.37201" lon="4.5482">
        <ele>1282</ele>
        <time>2010-12-02T15:22:26Z</time>
      </trkpt>
      <trkpt lat="45.37199" lon="4.54806">
        <ele>1282</ele>
        <time>2010-12-02T15:22:38Z</time>
      </trkpt>
      <trkpt lat="45.37196" lon="4.54793">
        <ele>1281</ele>
        <time>2010-12-02T15:22:49Z</time>
      </trkpt>
      <trkpt lat="45.37189" lon="4.54783">
        <ele>1281</ele>
        <time>2010-12-02T15:23:01Z</time>
      </trkpt>
      <trkpt lat="45.37182" lon="4.54774">
        <ele>1281</ele>
        <time>2010-12-02T15:23:10Z</time>
      </trkpt>
      <trkpt lat="45.3718" lon="4.5476">
        <ele>1280</ele>
        <time>2010-12-02T15:23:25Z</time>
      </trkpt>
      <trkpt lat="45.37174" lon="4.54747">
        <ele>1277</ele>
        <time>2010-12-02T15:23:35Z</time>
      </trkpt>
      <trkpt lat="45.3717" lon="4.54733">
        <ele>1275</ele>
        <time>2010-12-02T15:23:47Z</time>
      </trkpt>
      <trkpt lat="45.37166" lon="4.5472">
        <ele>1275</ele>
        <time>2010-12-02T15:23:58Z</time>
      </trkpt>
      <trkpt lat="45.37157" lon="4.54716">
        <ele>1275</ele>
        <time>2010-12-02T15:24:06Z</time>
      </trkpt>
      <trkpt lat="45.37151" lon="4.54705">
        <ele>1274</ele>
        <time>2010-12-02T15:24:16Z</time>
      </trkpt>
      <trkpt lat="45.37151" lon="4.54691">
        <ele>1272</ele>
        <time>2010-12-02T15:24:30Z</time>
      </trkpt>
      <trkpt lat="45.37149" lon="4.54678">
        <ele>1271</ele>
        <time>2010-12-02T15:24:42Z</time>
      </trkpt>
      <trkpt lat="45.37145" lon="4.54666">
        <ele>1263</ele>
        <time>2010-12-02T15:24:59Z</time>
      </trkpt>
      <trkpt lat="45.37138" lon="4.54657">
        <ele>1263</ele>
        <time>2010-12-02T15:25:10Z</time>
      </trkpt>
      <trkpt lat="45.37129" lon="4.54652">
        <ele>1262</ele>
        <time>2010-12-02T15:25:19Z</time>
      </trkpt>
      <trkpt lat="45.37122" lon="4.54637">
        <ele>1261</ele>
        <time>2010-12-02T15:25:31Z</time>
      </trkpt>
      <trkpt lat="45.37115" lon="4.54628">
        <ele>1261</ele>
        <time>2010-12-02T15:25:41Z</time>
      </trkpt>
      <trkpt lat="45.37109" lon="4.54617">
        <ele>1260</ele>
        <time>2010-12-02T15:25:49Z</time>
      </trkpt>
      <trkpt lat="45.37103" lon="4.54607">
        <ele>1258</ele>
        <time>2010-12-02T15:26:01Z</time>
      </trkpt>
      <trkpt lat="45.37094" lon="4.54601">
        <ele>1257</ele>
        <time>2010-12-02T15:26:13Z</time>
      </trkpt>
      <trkpt lat="45.37085" lon="4.54592">
        <ele>1255</ele>
        <time>2010-12-02T15:26:20Z</time>
      </trkpt>
      <trkpt lat="45.37079" lon="4.54583">
        <ele>1252</ele>
        <time>2010-12-02T15:26:30Z</time>
      </trkpt>
      <trkpt lat="45.3707" lon="4.54579">
        <ele>1251</ele>
        <time>2010-12-02T15:26:41Z</time>
      </trkpt>
      <trkpt lat="45.37065" lon="4.54565">
        <ele>1250</ele>
        <time>2010-12-02T15:26:56Z</time>
      </trkpt>
      <trkpt lat="45.37065" lon="4.54551">
        <ele>1249</ele>
        <time>2010-12-02T15:27:03Z</time>
      </trkpt>
      <trkpt lat="45.37061" lon="4.54538">
        <ele>1248</ele>
        <time>2010-12-02T15:27:12Z</time>
      </trkpt>
      <trkpt lat="45.37054" lon="4.54529">
        <ele>1247</ele>
        <time>2010-12-02T15:27:19Z</time>
      </trkpt>
      <trkpt lat="45.37047" lon="4.54516">
        <ele>1247</ele>
        <time>2010-12-02T15:27:34Z</time>
      </trkpt>
      <trkpt lat="45.3704" lon="4.54505">
        <ele>1246</ele>
        <time>2010-12-02T15:27:45Z</time>
      </trkpt>
      <trkpt lat="45.37039" lon="4.54491">
        <ele>1238</ele>
        <time>2010-12-02T15:27:55Z</time>
      </trkpt>
      <trkpt lat="45.37029" lon="4.54486">
        <ele>1238</ele>
        <time>2010-12-02T15:28:02Z</time>
      </trkpt>
      <trkpt lat="45.37027" lon="4.54472">
        <ele>1237</ele>
        <time>2010-12-02T15:28:10Z</time>
      </trkpt>
      <trkpt lat="45.37032" lon="4.5446">
        <ele>1236</ele>
        <time>2010-12-02T15:28:17Z</time>
      </trkpt>
      <trkpt lat="45.37027" lon="4.54448">
        <ele>1235</ele>
        <time>2010-12-02T15:28:24Z</time>
      </trkpt>
      <trkpt lat="45.3702" lon="4.54439">
        <ele>1234</ele>
        <time>2010-12-02T15:28:37Z</time>
      </trkpt>
      <trkpt lat="45.37025" lon="4.54427">
        <ele>1234</ele>
        <time>2010-12-02T15:28:49Z</time>
      </trkpt>
      <trkpt lat="45.37017" lon="4.54419">
        <ele>1232</ele>
        <time>2010-12-02T15:29:15Z</time>
      </trkpt>
      <trkpt lat="45.37014" lon="4.54406">
        <ele>1228</ele>
        <time>2010-12-02T15:29:38Z</time>
      </trkpt>
      <trkpt lat="45.37019" lon="4.54394">
        <ele>1227</ele>
        <time>2010-12-02T15:30:02Z</time>
      </trkpt>
      <trkpt lat="45.37018" lon="4.5438">
        <ele>1227</ele>
        <time>2010-12-02T15:30:26Z</time>
      </trkpt>
      <trkpt lat="45.37027" lon="4.54384">
        <ele>1227</ele>
        <time>2010-12-02T15:31:37Z</time>
      </trkpt>
      <trkpt lat="45.37017" lon="4.54389">
        <ele>1227</ele>
        <time>2010-12-02T15:32:02Z</time>
      </trkpt>
      <trkpt lat="45.37022" lon="4.54378">
        <ele>1227</ele>
        <time>2010-12-02T15:32:28Z</time>
      </trkpt>
      <trkpt lat="45.37025" lon="4.54365">
        <ele>1226</ele>
        <time>2010-12-02T15:32:41Z</time>
      </trkpt>
      <trkpt lat="45.37018" lon="4.54355">
        <ele>1226</ele>
        <time>2010-12-02T15:32:53Z</time>
      </trkpt>
      <trkpt lat="45.37018" lon="4.54341">
        <ele>1225</ele>
        <time>2010-12-02T15:33:04Z</time>
      </trkpt>
      <trkpt lat="45.37013" lon="4.5433">
        <ele>1223</ele>
        <time>2010-12-02T15:33:15Z</time>
      </trkpt>
      <trkpt lat="45.3701" lon="4.54318">
        <ele>1223</ele>
        <time>2010-12-02T15:33:29Z</time>
      </trkpt>
      <trkpt lat="45.37006" lon="4.54304">
        <ele>1223</ele>
        <time>2010-12-02T15:33:41Z</time>
      </trkpt>
      <trkpt lat="45.37004" lon="4.54291">
        <ele>1223</ele>
        <time>2010-12-02T15:33:51Z</time>
      </trkpt>
      <trkpt lat="45.37007" lon="4.54278">
        <ele>1222</ele>
        <time>2010-12-02T15:33:57Z</time>
      </trkpt>
      <trkpt lat="45.37008" lon="4.54265">
        <ele>1223</ele>
        <time>2010-12-02T15:34:11Z</time>
      </trkpt>
      <trkpt lat="45.37004" lon="4.54253">
        <ele>1223</ele>
        <time>2010-12-02T15:34:20Z</time>
      </trkpt>
      <trkpt lat="45.37002" lon="4.54239">
        <ele>1223</ele>
        <time>2010-12-02T15:34:38Z</time>
      </trkpt>
      <trkpt lat="45.37001" lon="4.54225">
        <ele>1222</ele>
        <time>2010-12-02T15:34:51Z</time>
      </trkpt>
      <trkpt lat="45.36996" lon="4.54213">
        <ele>1222</ele>
        <time>2010-12-02T15:35:00Z</time>
      </trkpt>
      <trkpt lat="45.37" lon="4.542">
        <ele>1222</ele>
        <time>2010-12-02T15:35:13Z</time>
      </trkpt>
      <trkpt lat="45.37001" lon="4.54186">
        <ele>1223</ele>
        <time>2010-12-02T15:35:25Z</time>
      </trkpt>
      <trkpt lat="45.37002" lon="4.54173">
        <ele>1224</ele>
        <time>2010-12-02T15:35:36Z</time>
      </trkpt>
      <trkpt lat="45.37001" lon="4.54158">
        <ele>1224</ele>
        <time>2010-12-02T15:35:49Z</time>
      </trkpt>
      <trkpt lat="45.36999" lon="4.54143">
        <ele>1224</ele>
        <time>2010-12-02T15:35:57Z</time>
      </trkpt>
      <trkpt lat="45.36997" lon="4.5413">
        <ele>1224</ele>
        <time>2010-12-02T15:36:11Z</time>
      </trkpt>
      <trkpt lat="45.36992" lon="4.54118">
        <ele>1224</ele>
        <time>2010-12-02T15:36:22Z</time>
      </trkpt>
      <trkpt lat="45.36991" lon="4.54105">
        <ele>1224</ele>
        <time>2010-12-02T15:36:32Z</time>
      </trkpt>
      <trkpt lat="45.36991" lon="4.5409">
        <ele>1225</ele>
        <time>2010-12-02T15:36:42Z</time>
      </trkpt>
      <trkpt lat="45.36987" lon="4.54078">
        <ele>1226</ele>
        <time>2010-12-02T15:36:54Z</time>
      </trkpt>
      <trkpt lat="45.36986" lon="4.54064">
        <ele>1226</ele>
        <time>2010-12-02T15:37:03Z</time>
      </trkpt>
      <trkpt lat="45.36992" lon="4.54052">
        <ele>1227</ele>
        <time>2010-12-02T15:37:16Z</time>
      </trkpt>
      <trkpt lat="45.36998" lon="4.54042">
        <ele>1227</ele>
        <time>2010-12-02T15:37:25Z</time>
      </trkpt>
      <trkpt lat="45.37002" lon="4.54028">
        <ele>1226</ele>
        <time>2010-12-02T15:37:33Z</time>
      </trkpt>
      <trkpt lat="45.37001" lon="4.54014">
        <ele>1228</ele>
        <time>2010-12-02T15:37:57Z</time>
      </trkpt>
      <trkpt lat="45.37002" lon="4.54001">
        <ele>1230</ele>
        <time>2010-12-02T15:38:07Z</time>
      </trkpt>
      <trkpt lat="45.36999" lon="4.53984">
        <ele>1231</ele>
        <time>2010-12-02T15:38:23Z</time>
      </trkpt>
      <trkpt lat="45.37002" lon="4.53971">
        <ele>1230</ele>
        <time>2010-12-02T15:38:31Z</time>
      </trkpt>
      <trkpt lat="45.37002" lon="4.53956">
        <ele>1231</ele>
        <time>2010-12-02T15:38:44Z</time>
      </trkpt>
      <trkpt lat="45.37002" lon="4.53942">
        <ele>1232</ele>
        <time>2010-12-02T15:38:59Z</time>
      </trkpt>
      <trkpt lat="45.37002" lon="4.53929">
        <ele>1235</ele>
        <time>2010-12-02T15:39:14Z</time>
      </trkpt>
      <trkpt lat="45.36996" lon="4.53917">
        <ele>1237</ele>
        <time>2010-12-02T15:39:27Z</time>
      </trkpt>
      <trkpt lat="45.37001" lon="4.53904">
        <ele>1236</ele>
        <time>2010-12-02T15:39:35Z</time>
      </trkpt>
      <trkpt lat="45.36999" lon="4.53891">
        <ele>1239</ele>
        <time>2010-12-02T15:39:49Z</time>
      </trkpt>
      <trkpt lat="45.36997" lon="4.53877">
        <ele>1240</ele>
        <time>2010-12-02T15:39:59Z</time>
      </trkpt>
      <trkpt lat="45.36997" lon="4.53863">
        <ele>1240</ele>
        <time>2010-12-02T15:40:06Z</time>
      </trkpt>
      <trkpt lat="45.37" lon="4.5385">
        <ele>1241</ele>
        <time>2010-12-02T15:40:14Z</time>
      </trkpt>
      <trkpt lat="45.36995" lon="4.53838">
        <ele>1241</ele>
        <time>2010-12-02T15:40:24Z</time>
      </trkpt>
      <trkpt lat="45.36994" lon="4.53822">
        <ele>1243</ele>
        <time>2010-12-02T15:40:36Z</time>
      </trkpt>
      <trkpt lat="45.36994" lon="4.53808">
        <ele>1244</ele>
        <time>2010-12-02T15:40:43Z</time>
      </trkpt>
      <trkpt lat="45.36994" lon="4.53794">
        <ele>1244</ele>
        <time>2010-12-02T15:40:52Z</time>
      </trkpt>
      <trkpt lat="45.36991" lon="4.53781">
        <ele>1244</ele>
        <time>2010-12-02T15:41:03Z</time>
      </trkpt>
      <trkpt lat="45.36989" lon="4.53768">
        <ele>1244</ele>
        <time>2010-12-02T15:41:14Z</time>
      </trkpt>
      <trkpt lat="45.36992" lon="4.53754">
        <ele>1244</ele>
        <time>2010-12-02T15:41:29Z</time>
      </trkpt>
      <trkpt lat="45.36996" lon="4.53742">
        <ele>1245</ele>
        <time>2010-12-02T15:41:43Z</time>
      </trkpt>
      <trkpt lat="45.36996" lon="4.53727">
        <ele>1247</ele>
        <time>2010-12-02T15:41:54Z</time>
      </trkpt>
      <trkpt lat="45.36999" lon="4.53715">
        <ele>1247</ele>
        <time>2010-12-02T15:42:01Z</time>
      </trkpt>
      <trkpt lat="45.37002" lon="4.537">
        <ele>1241</ele>
        <time>2010-12-02T15:42:18Z</time>
      </trkpt>
      <trkpt lat="45.37002" lon="4.53687">
        <ele>1242</ele>
        <time>2010-12-02T15:42:26Z</time>
      </trkpt>
      <trkpt lat="45.37002" lon="4.53674">
        <ele>1244</ele>
        <time>2010-12-02T15:42:36Z</time>
      </trkpt>
      <trkpt lat="45.37005" lon="4.53661">
        <ele>1245</ele>
        <time>2010-12-02T15:42:50Z</time>
      </trkpt>
      <trkpt lat="45.37007" lon="4.53646">
        <ele>1244</ele>
        <time>2010-12-02T15:42:59Z</time>
      </trkpt>
      <trkpt lat="45.37008" lon="4.53631">
        <ele>1244</ele>
        <time>2010-12-02T15:43:15Z</time>
      </trkpt>
      <trkpt lat="45.37012" lon="4.53618">
        <ele>1244</ele>
        <time>2010-12-02T15:43:19Z</time>
      </trkpt>
      <trkpt lat="45.37013" lon="4.53604">
        <ele>1245</ele>
        <time>2010-12-02T15:43:27Z</time>
      </trkpt>
      <trkpt lat="45.37016" lon="4.5359">
        <ele>1246</ele>
        <time>2010-12-02T15:43:38Z</time>
      </trkpt>
      <trkpt lat="45.37021" lon="4.53577">
        <ele>1247</ele>
        <time>2010-12-02T15:43:52Z</time>
      </trkpt>
      <trkpt lat="45.37023" lon="4.53561">
        <ele>1246</ele>
        <time>2010-12-02T15:43:59Z</time>
      </trkpt>
      <trkpt lat="45.37022" lon="4.53548">
        <ele>1246</ele>
        <time>2010-12-02T15:44:07Z</time>
      </trkpt>
      <trkpt lat="45.37028" lon="4.53537">
        <ele>1246</ele>
        <time>2010-12-02T15:44:18Z</time>
      </trkpt>
      <trkpt lat="45.37022" lon="4.53525">
        <ele>1246</ele>
        <time>2010-12-02T15:44:28Z</time>
      </trkpt>
      <trkpt lat="45.37023" lon="4.53512">
        <ele>1247</ele>
        <time>2010-12-02T15:44:41Z</time>
      </trkpt>
      <trkpt lat="45.37023" lon="4.53497">
        <ele>1248</ele>
        <time>2010-12-02T15:45:00Z</time>
      </trkpt>
      <trkpt lat="45.37022" lon="4.53484">
        <ele>1248</ele>
        <time>2010-12-02T15:45:16Z</time>
      </trkpt>
      <trkpt lat="45.37022" lon="4.53471">
        <ele>1248</ele>
        <time>2010-12-02T15:45:29Z</time>
      </trkpt>
      <trkpt lat="45.37015" lon="4.53462">
        <ele>1248</ele>
        <time>2010-12-02T15:45:43Z</time>
      </trkpt>
      <trkpt lat="45.37014" lon="4.53447">
        <ele>1248</ele>
        <time>2010-12-02T15:45:55Z</time>
      </trkpt>
      <trkpt lat="45.37005" lon="4.53443">
        <ele>1248</ele>
        <time>2010-12-02T15:46:04Z</time>
      </trkpt>
      <trkpt lat="45.37004" lon="4.53428">
        <ele>1249</ele>
        <time>2010-12-02T15:46:19Z</time>
      </trkpt>
      <trkpt lat="45.37003" lon="4.53413">
        <ele>1250</ele>
        <time>2010-12-02T15:46:30Z</time>
      </trkpt>
      <trkpt lat="45.36996" lon="4.53404">
        <ele>1249</ele>
        <time>2010-12-02T15:46:57Z</time>
      </trkpt>
      <trkpt lat="45.3699" lon="4.53394">
        <ele>1249</ele>
        <time>2010-12-02T15:47:33Z</time>
      </trkpt>
      <trkpt lat="45.36998" lon="4.53402">
        <ele>1249</ele>
        <time>2010-12-02T15:47:58Z</time>
      </trkpt>
      <trkpt lat="45.36989" lon="4.53398">
        <ele>1249</ele>
        <time>2010-12-02T15:48:45Z</time>
      </trkpt>
      <trkpt lat="45.36989" lon="4.53384">
        <ele>1248</ele>
        <time>2010-12-02T15:49:38Z</time>
      </trkpt>
      <trkpt lat="45.36983" lon="4.53372">
        <ele>1248</ele>
        <time>2010-12-02T15:50:09Z</time>
      </trkpt>
      <trkpt lat="45.36987" lon="4.53359">
        <ele>1248</ele>
        <time>2010-12-02T15:50:21Z</time>
      </trkpt>
      <trkpt lat="45.36984" lon="4.53347">
        <ele>1248</ele>
        <time>2010-12-02T15:50:37Z</time>
      </trkpt>
      <trkpt lat="45.36982" lon="4.53334">
        <ele>1248</ele>
        <time>2010-12-02T15:50:53Z</time>
      </trkpt>
      <trkpt lat="45.36977" lon="4.53322">
        <ele>1246</ele>
        <time>2010-12-02T15:51:01Z</time>
      </trkpt>
      <trkpt lat="45.36973" lon="4.5331">
        <ele>1246</ele>
        <time>2010-12-02T15:51:12Z</time>
      </trkpt>
      <trkpt lat="45.36963" lon="4.53301">
        <ele>1245</ele>
        <time>2010-12-02T15:51:22Z</time>
      </trkpt>
      <trkpt lat="45.36956" lon="4.53287">
        <ele>1244</ele>
        <time>2010-12-02T15:51:31Z</time>
      </trkpt>
      <trkpt lat="45.36949" lon="4.53276">
        <ele>1243</ele>
        <time>2010-12-02T15:51:42Z</time>
      </trkpt>
      <trkpt lat="45.36941" lon="4.53266">
        <ele>1242</ele>
        <time>2010-12-02T15:51:52Z</time>
      </trkpt>
      <trkpt lat="45.36937" lon="4.53254">
        <ele>1241</ele>
        <time>2010-12-02T15:52:02Z</time>
      </trkpt>
      <trkpt lat="45.36935" lon="4.5324">
        <ele>1239</ele>
        <time>2010-12-02T15:52:12Z</time>
      </trkpt>
      <trkpt lat="45.3693" lon="4.53227">
        <ele>1239</ele>
        <time>2010-12-02T15:52:18Z</time>
      </trkpt>
      <trkpt lat="45.36932" lon="4.53213">
        <ele>1239</ele>
        <time>2010-12-02T15:52:31Z</time>
      </trkpt>
      <trkpt lat="45.3693" lon="4.53199">
        <ele>1239</ele>
        <time>2010-12-02T15:52:42Z</time>
      </trkpt>
      <trkpt lat="45.36924" lon="4.53187">
        <ele>1238</ele>
        <time>2010-12-02T15:52:52Z</time>
      </trkpt>
      <trkpt lat="45.36922" lon="4.53172">
        <ele>1237</ele>
        <time>2010-12-02T15:53:03Z</time>
      </trkpt>
      <trkpt lat="45.3692" lon="4.53159">
        <ele>1235</ele>
        <time>2010-12-02T15:53:15Z</time>
      </trkpt>
      <trkpt lat="45.3692" lon="4.53144">
        <ele>1235</ele>
        <time>2010-12-02T15:53:25Z</time>
      </trkpt>
      <trkpt lat="45.36916" lon="4.5313">
        <ele>1230</ele>
        <time>2010-12-02T15:53:36Z</time>
      </trkpt>
      <trkpt lat="45.36909" lon="4.53121">
        <ele>1229</ele>
        <time>2010-12-02T15:53:44Z</time>
      </trkpt>
      <trkpt lat="45.36912" lon="4.53107">
        <ele>1228</ele>
        <time>2010-12-02T15:53:50Z</time>
      </trkpt>
      <trkpt lat="45.36909" lon="4.53094">
        <ele>1228</ele>
        <time>2010-12-02T15:53:57Z</time>
      </trkpt>
      <trkpt lat="45.36902" lon="4.53082">
        <ele>1225</ele>
        <time>2010-12-02T15:54:06Z</time>
      </trkpt>
      <trkpt lat="45.36902" lon="4.53069">
        <ele>1224</ele>
        <time>2010-12-02T15:54:11Z</time>
      </trkpt>
      <trkpt lat="45.36906" lon="4.53054">
        <ele>1222</ele>
        <time>2010-12-02T15:54:18Z</time>
      </trkpt>
      <trkpt lat="45.36912" lon="4.53042">
        <ele>1222</ele>
        <time>2010-12-02T15:54:30Z</time>
      </trkpt>
      <trkpt lat="45.36909" lon="4.53029">
        <ele>1221</ele>
        <time>2010-12-02T15:54:39Z</time>
      </trkpt>
      <trkpt lat="45.36906" lon="4.53016">
        <ele>1220</ele>
        <time>2010-12-02T15:54:53Z</time>
      </trkpt>
      <trkpt lat="45.36902" lon="4.53002">
        <ele>1219</ele>
        <time>2010-12-02T15:55:05Z</time>
      </trkpt>
      <trkpt lat="45.36897" lon="4.5299">
        <ele>1215</ele>
        <time>2010-12-02T15:55:13Z</time>
      </trkpt>
      <trkpt lat="45.36891" lon="4.52977">
        <ele>1214</ele>
        <time>2010-12-02T15:55:23Z</time>
      </trkpt>
      <trkpt lat="45.36891" lon="4.52964">
        <ele>1213</ele>
        <time>2010-12-02T15:55:34Z</time>
      </trkpt>
      <trkpt lat="45.36894" lon="4.5295">
        <ele>1212</ele>
        <time>2010-12-02T15:55:47Z</time>
      </trkpt>
      <trkpt lat="45.36896" lon="4.52936">
        <ele>1211</ele>
        <time>2010-12-02T15:55:54Z</time>
      </trkpt>
      <trkpt lat="45.36897" lon="4.52923">
        <ele>1211</ele>
        <time>2010-12-02T15:56:03Z</time>
      </trkpt>
      <trkpt lat="45.36897" lon="4.52909">
        <ele>1207</ele>
        <time>2010-12-02T15:56:13Z</time>
      </trkpt>
      <trkpt lat="45.36894" lon="4.52896">
        <ele>1206</ele>
        <time>2010-12-02T15:56:21Z</time>
      </trkpt>
      <trkpt lat="45.36886" lon="4.52888">
        <ele>1206</ele>
        <time>2010-12-02T15:56:31Z</time>
      </trkpt>
      <trkpt lat="45.3688" lon="4.52876">
        <ele>1206</ele>
        <time>2010-12-02T15:56:41Z</time>
      </trkpt>
      <trkpt lat="45.36876" lon="4.52864">
        <ele>1205</ele>
        <time>2010-12-02T15:56:52Z</time>
      </trkpt>
      <trkpt lat="45.3687" lon="4.52852">
        <ele>1205</ele>
        <time>2010-12-02T15:57:06Z</time>
      </trkpt>
      <trkpt lat="45.36862" lon="4.52843">
        <ele>1205</ele>
        <time>2010-12-02T15:57:15Z</time>
      </trkpt>
      <trkpt lat="45.36855" lon="4.52834">
        <ele>1205</ele>
        <time>2010-12-02T15:57:28Z</time>
      </trkpt>
      <trkpt lat="45.36848" lon="4.52825">
        <ele>1203</ele>
        <time>2010-12-02T15:57:38Z</time>
      </trkpt>
      <trkpt lat="45.36839" lon="4.52817">
        <ele>1203</ele>
        <time>2010-12-02T15:57:50Z</time>
      </trkpt>
      <trkpt lat="45.36832" lon="4.52808">
        <ele>1205</ele>
        <time>2010-12-02T15:58:03Z</time>
      </trkpt>
      <trkpt lat="45.36837" lon="4.52797">
        <ele>1202</ele>
        <time>2010-12-02T15:58:22Z</time>
      </trkpt>
    </trkseg>
  </trk>
</gpx>